DLH438 EDDF-KDFW
Flight info
| Callsign | DLH438 |
|---|---|
| Flight time | N/A |
| Altitude | 34000 |
| Route | OBOKA2E OBOKA Z28 DIBIR DCT BUDIP DCT TOPPA DCT VENAS DCT RODSI DCT GIVEM DCT BALIX/M080F340 DCT 61N020W 62N030W 62N040W 60N050W DCT URTAK/N0461F340 N890B SSM J101 BAE DCT WELTS DCT SGF DCT RZC DCT FSM DCT RRNET SEEVR4 |
| Aircraft | A343/H-SDE2E3FGHIJ3J5M1P2RWXYZ/LB1D1 |
Departure
| Time | 2026-04-11 03:02 |
|---|---|
| Airport | Frankfurt Main Airport (EDDF) |
Arrival
| Time | N/A |
|---|---|
| Airport | Dallas Fort Worth International Airport (KDFW) |
| Time | Latitude | Longitude | Altitude | Speed | Heading |
|---|---|---|---|---|---|
| 2026-04-11 02:37 | 50.04964 | 8.58293 | 363 ft | 0 kts | 340° |
| 2026-04-11 02:53 | 50.04952 | 8.58300 | 369 ft | 4 kts | 340° |
| 2026-04-11 02:53 | 50.04926 | 8.58315 | 369 ft | 4 kts | 340° |
| 2026-04-11 02:53 | 50.04903 | 8.58329 | 369 ft | 2 kts | 339° |
| 2026-04-11 02:53 | 50.04879 | 8.58336 | 364 ft | 4 kts | 21° |
| 2026-04-11 02:54 | 50.04864 | 8.58311 | 370 ft | 4 kts | 71° |
| 2026-04-11 02:54 | 50.04859 | 8.58286 | 364 ft | 1 kts | 69° |
| 2026-04-11 02:54 | 50.04858 | 8.58282 | 364 ft | 0 kts | 69° |
| 2026-04-11 02:58 | 50.04858 | 8.58284 | 364 ft | 2 kts | 69° |
| 2026-04-11 02:58 | 50.04872 | 8.58342 | 371 ft | 10 kts | 69° |
| 2026-04-11 02:58 | 50.04906 | 8.58477 | 369 ft | 16 kts | 68° |
| 2026-04-11 02:58 | 50.04908 | 8.58646 | 372 ft | 15 kts | 127° |
| 2026-04-11 02:59 | 50.04833 | 8.58714 | 373 ft | 11 kts | 158° |
| 2026-04-11 02:59 | 50.04777 | 8.58749 | 375 ft | 7 kts | 159° |
| 2026-04-11 02:59 | 50.04727 | 8.58770 | 373 ft | 9 kts | 173° |
| 2026-04-11 02:59 | 50.04635 | 8.58754 | 376 ft | 17 kts | 195° |
| 2026-04-11 03:00 | 50.04540 | 8.58657 | 374 ft | 16 kts | 218° |
| 2026-04-11 03:00 | 50.04472 | 8.58529 | 380 ft | 15 kts | 245° |
| 2026-04-11 03:00 | 50.04436 | 8.58386 | 376 ft | 14 kts | 253° |
| 2026-04-11 03:00 | 50.04363 | 8.58065 | 374 ft | 56 kts | 251° |
| 2026-04-11 03:01 | 50.04165 | 8.57249 | 376 ft | 103 kts | 249° |
| 2026-04-11 03:01 | 50.03861 | 8.55979 | 362 ft | 145 kts | 249° |
| 2026-04-11 03:01 | 50.03476 | 8.54358 | 371 ft | 177 kts | 250° |
| 2026-04-11 03:01 | 50.03036 | 8.52492 | 720 ft | 184 kts | 251° |
| 2026-04-11 03:02 | 50.02389 | 8.50816 | 1207 ft | 184 kts | 218° |
| 2026-04-11 03:02 | 50.01266 | 8.49948 | 1779 ft | 178 kts | 195° |
| 2026-04-11 03:02 | 50.00078 | 8.49352 | 2208 ft | 185 kts | 195° |
| 2026-04-11 03:02 | 49.98814 | 8.48674 | 2491 ft | 198 kts | 197° |
| 2026-04-11 03:03 | 49.97445 | 8.47873 | 2690 ft | 220 kts | 199° |
| 2026-04-11 03:03 | 49.95977 | 8.47022 | 2983 ft | 236 kts | 196° |
| 2026-04-11 03:03 | 49.94357 | 8.46257 | 3413 ft | 248 kts | 195° |
| 2026-04-11 03:03 | 49.92680 | 8.45480 | 3933 ft | 256 kts | 198° |
| 2026-04-11 03:04 | 49.91134 | 8.44052 | 4412 ft | 267 kts | 227° |
| 2026-04-11 03:04 | 49.90060 | 8.41668 | 5023 ft | 272 kts | 239° |
| 2026-04-11 03:04 | 49.89124 | 8.39114 | 5697 ft | 273 kts | 243° |
| 2026-04-11 03:04 | 49.88574 | 8.36317 | 6377 ft | 273 kts | 266° |
| 2026-04-11 03:05 | 49.88629 | 8.33375 | 7058 ft | 273 kts | 274° |
| 2026-04-11 03:05 | 49.88804 | 8.30458 | 7679 ft | 274 kts | 275° |
| 2026-04-11 03:05 | 49.89061 | 8.27489 | 8314 ft | 276 kts | 283° |
| 2026-04-11 03:05 | 49.89841 | 8.24813 | 8916 ft | 278 kts | 303° |
| 2026-04-11 03:06 | 49.90982 | 8.22396 | 9573 ft | 278 kts | 306° |
| 2026-04-11 03:06 | 49.92155 | 8.20004 | 10180 ft | 279 kts | 305° |
| 2026-04-11 03:06 | 49.93342 | 8.17547 | 10479 ft | 291 kts | 305° |
| 2026-04-11 03:06 | 49.94718 | 8.15135 | 10707 ft | 305 kts | 315° |
| 2026-04-11 03:07 | 49.96350 | 8.12934 | 10965 ft | 316 kts | 317° |
| 2026-04-11 03:07 | 49.98060 | 8.10684 | 11226 ft | 327 kts | 317° |
| 2026-04-11 03:07 | 49.99796 | 8.08380 | 11489 ft | 337 kts | 317° |
| 2026-04-11 03:07 | 50.01595 | 8.05983 | 11827 ft | 344 kts | 316° |
| 2026-04-11 03:08 | 50.05275 | 8.01064 | 12770 ft | 352 kts | 316° |
| 2026-04-11 03:08 | 50.07136 | 7.98571 | 13264 ft | 355 kts | 316° |
| 2026-04-11 03:08 | 50.09014 | 7.96051 | 13792 ft | 357 kts | 316° |
| 2026-04-11 03:09 | 50.10903 | 7.93511 | 14266 ft | 360 kts | 316° |
| 2026-04-11 03:09 | 50.12805 | 7.90950 | 14651 ft | 364 kts | 316° |
| 2026-04-11 03:09 | 50.14735 | 7.88350 | 15067 ft | 367 kts | 316° |
| 2026-04-11 03:09 | 50.16672 | 7.85736 | 15488 ft | 372 kts | 317° |
| 2026-04-11 03:10 | 50.18648 | 7.83068 | 15848 ft | 377 kts | 317° |
| 2026-04-11 03:10 | 50.20612 | 7.80413 | 16305 ft | 379 kts | 317° |
| 2026-04-11 03:10 | 50.22605 | 7.77717 | 16771 ft | 381 kts | 317° |
| 2026-04-11 03:10 | 50.24648 | 7.75035 | 17201 ft | 385 kts | 321° |
| 2026-04-11 03:11 | 50.26948 | 7.72835 | 17645 ft | 390 kts | 331° |
| 2026-04-11 03:11 | 50.29432 | 7.71054 | 18106 ft | 394 kts | 334° |
| 2026-04-11 03:11 | 50.31936 | 7.69353 | 18500 ft | 396 kts | 334° |
| 2026-04-11 03:11 | 50.34467 | 7.67637 | 18897 ft | 398 kts | 334° |
| 2026-04-11 03:12 | 50.37020 | 7.65900 | 19312 ft | 400 kts | 334° |
| 2026-04-11 03:12 | 50.39583 | 7.64151 | 19736 ft | 401 kts | 333° |
| 2026-04-11 03:12 | 50.42143 | 7.62392 | 20102 ft | 404 kts | 333° |
| 2026-04-11 03:12 | 50.44734 | 7.60609 | 20476 ft | 406 kts | 333° |
| 2026-04-11 03:13 | 50.47333 | 7.58819 | 20877 ft | 408 kts | 333° |
| 2026-04-11 03:13 | 50.49906 | 7.57045 | 21262 ft | 409 kts | 333° |
| 2026-04-11 03:13 | 50.52527 | 7.55236 | 21655 ft | 411 kts | 333° |
| 2026-04-11 03:13 | 50.55129 | 7.53380 | 22032 ft | 412 kts | 330° |
| 2026-04-11 03:14 | 50.57613 | 7.51128 | 22406 ft | 411 kts | 325° |
| 2026-04-11 03:14 | 50.60031 | 7.48685 | 22771 ft | 413 kts | 324° |
| 2026-04-11 03:14 | 50.62435 | 7.46217 | 23131 ft | 414 kts | 323° |
| 2026-04-11 03:14 | 50.64864 | 7.43720 | 23452 ft | 418 kts | 323° |
| 2026-04-11 03:15 | 50.67305 | 7.41209 | 23661 ft | 422 kts | 323° |
| 2026-04-11 03:15 | 50.69770 | 7.38674 | 23992 ft | 422 kts | 323° |
| 2026-04-11 03:15 | 50.72220 | 7.36106 | 24336 ft | 421 kts | 321° |
| 2026-04-11 03:15 | 50.74453 | 7.33173 | 24636 ft | 417 kts | 311° |
| 2026-04-11 03:16 | 50.76334 | 7.29752 | 24955 ft | 415 kts | 305° |
| 2026-04-11 03:16 | 50.78075 | 7.26109 | 25276 ft | 414 kts | 303° |
| 2026-04-11 03:16 | 50.79737 | 7.22407 | 25592 ft | 414 kts | 302° |
| 2026-04-11 03:16 | 50.81377 | 7.18653 | 25890 ft | 414 kts | 302° |
| 2026-04-11 03:17 | 50.83013 | 7.14887 | 26179 ft | 414 kts | 302° |
| 2026-04-11 03:17 | 50.84646 | 7.11141 | 26489 ft | 415 kts | 302° |
| 2026-04-11 03:17 | 50.86295 | 7.07381 | 26765 ft | 415 kts | 302° |
| 2026-04-11 03:17 | 50.87946 | 7.03638 | 27022 ft | 416 kts | 302° |
| 2026-04-11 03:18 | 50.89610 | 6.99872 | 27277 ft | 417 kts | 302° |
| 2026-04-11 03:18 | 50.91281 | 6.96102 | 27550 ft | 417 kts | 301° |
| 2026-04-11 03:18 | 50.92945 | 6.92345 | 27797 ft | 417 kts | 301° |
| 2026-04-11 03:18 | 50.94616 | 6.88564 | 28037 ft | 418 kts | 301° |
| 2026-04-11 03:19 | 50.96287 | 6.84775 | 28280 ft | 418 kts | 301° |
| 2026-04-11 03:19 | 50.97951 | 6.80995 | 28516 ft | 419 kts | 301° |
| 2026-04-11 03:19 | 50.99616 | 6.77206 | 28748 ft | 420 kts | 301° |
| 2026-04-11 03:19 | 51.01266 | 6.73448 | 28989 ft | 420 kts | 301° |
| 2026-04-11 03:20 | 51.02936 | 6.69639 | 29318 ft | 418 kts | 301° |
| 2026-04-11 03:20 | 51.04595 | 6.65852 | 29709 ft | 415 kts | 301° |
| 2026-04-11 03:20 | 51.06241 | 6.62091 | 30081 ft | 412 kts | 300° |
| 2026-04-11 03:20 | 51.07873 | 6.58354 | 30277 ft | 412 kts | 300° |
| 2026-04-11 03:21 | 51.09513 | 6.54591 | 30440 ft | 413 kts | 300° |
| 2026-04-11 03:21 | 51.11154 | 6.50826 | 30633 ft | 413 kts | 300° |
| 2026-04-11 03:21 | 51.12765 | 6.47113 | 30846 ft | 412 kts | 300° |
| 2026-04-11 03:21 | 51.14411 | 6.43313 | 31040 ft | 412 kts | 300° |
| 2026-04-11 03:22 | 51.16016 | 6.39605 | 31250 ft | 411 kts | 300° |
| 2026-04-11 03:22 | 51.17634 | 6.35859 | 31436 ft | 411 kts | 299° |
| 2026-04-11 03:22 | 51.19257 | 6.32096 | 31621 ft | 411 kts | 299° |
| 2026-04-11 03:22 | 51.20878 | 6.28338 | 31836 ft | 410 kts | 299° |
| 2026-04-11 03:23 | 51.22485 | 6.24606 | 32038 ft | 409 kts | 299° |
| 2026-04-11 03:23 | 51.24095 | 6.20862 | 32243 ft | 408 kts | 299° |
| 2026-04-11 03:23 | 51.25695 | 6.17137 | 32392 ft | 408 kts | 298° |
| 2026-04-11 03:23 | 51.27298 | 6.13394 | 32467 ft | 410 kts | 298° |
| 2026-04-11 03:24 | 51.28907 | 6.09622 | 32650 ft | 409 kts | 298° |
| 2026-04-11 03:24 | 51.30480 | 6.05830 | 32824 ft | 408 kts | 297° |
| 2026-04-11 03:24 | 51.32022 | 6.02045 | 33014 ft | 407 kts | 297° |
| 2026-04-11 03:24 | 51.33562 | 5.98241 | 33178 ft | 406 kts | 297° |
| 2026-04-11 03:25 | 51.35077 | 5.94494 | 33330 ft | 406 kts | 297° |
| 2026-04-11 03:25 | 51.36734 | 5.90753 | 33480 ft | 410 kts | 302° |
| 2026-04-11 03:25 | 51.38646 | 5.87370 | 33626 ft | 416 kts | 308° |
| 2026-04-11 03:25 | 51.40873 | 5.84360 | 33775 ft | 423 kts | 315° |
| 2026-04-11 03:26 | 51.43260 | 5.81584 | 33911 ft | 425 kts | 316° |
| 2026-04-11 03:26 | 51.45702 | 5.78885 | 34005 ft | 424 kts | 317° |
| 2026-04-11 03:26 | 51.50551 | 5.73697 | 34021 ft | 414 kts | 316° |
| 2026-04-11 03:27 | 51.55346 | 5.68534 | 34020 ft | 415 kts | 316° |
| 2026-04-11 03:27 | 51.60126 | 5.63328 | 34021 ft | 415 kts | 316° |
| 2026-04-11 03:28 | 51.64876 | 5.58126 | 33995 ft | 415 kts | 316° |
| 2026-04-11 03:28 | 51.69664 | 5.52869 | 34013 ft | 415 kts | 316° |
| 2026-04-11 03:29 | 51.74421 | 5.47637 | 34001 ft | 413 kts | 316° |
| 2026-04-11 03:29 | 51.79175 | 5.42392 | 33997 ft | 413 kts | 316° |
| 2026-04-11 03:30 | 51.83922 | 5.37139 | 33999 ft | 413 kts | 316° |
| 2026-04-11 03:30 | 51.88643 | 5.31904 | 34001 ft | 415 kts | 315° |
| 2026-04-11 03:31 | 51.93421 | 5.26586 | 34017 ft | 417 kts | 315° |
| 2026-04-11 03:31 | 51.98204 | 5.21259 | 33998 ft | 416 kts | 315° |
| 2026-04-11 03:32 | 52.02946 | 5.15963 | 33998 ft | 415 kts | 315° |
| 2026-04-11 03:32 | 52.06929 | 5.11501 | 33998 ft | 415 kts | 315° |
| 2026-04-11 03:33 | 52.11697 | 5.06144 | 33992 ft | 415 kts | 315° |
| 2026-04-11 03:33 | 52.16422 | 5.00824 | 33993 ft | 415 kts | 315° |
| 2026-04-11 03:34 | 52.21174 | 4.95459 | 33996 ft | 415 kts | 315° |
| 2026-04-11 03:34 | 52.25931 | 4.90073 | 34000 ft | 417 kts | 314° |
| 2026-04-11 03:35 | 52.30684 | 4.84672 | 33994 ft | 419 kts | 314° |
| 2026-04-11 03:35 | 52.35475 | 4.79220 | 33994 ft | 420 kts | 314° |
| 2026-04-11 03:36 | 52.40276 | 4.73747 | 33994 ft | 420 kts | 314° |
| 2026-04-11 03:36 | 52.45046 | 4.68291 | 33985 ft | 419 kts | 314° |
| 2026-04-11 03:37 | 52.49845 | 4.62788 | 33991 ft | 418 kts | 314° |
| 2026-04-11 03:37 | 52.54579 | 4.57340 | 33982 ft | 418 kts | 314° |
| 2026-04-11 03:38 | 52.59351 | 4.51835 | 33982 ft | 418 kts | 314° |
| 2026-04-11 03:38 | 52.64115 | 4.46323 | 33983 ft | 418 kts | 314° |
| 2026-04-11 03:39 | 52.68839 | 4.40845 | 33993 ft | 418 kts | 314° |
| 2026-04-11 03:39 | 52.73578 | 4.35336 | 33969 ft | 416 kts | 314° |
| 2026-04-11 03:40 | 52.78319 | 4.29808 | 33970 ft | 416 kts | 314° |
| 2026-04-11 03:40 | 52.83051 | 4.24274 | 33972 ft | 416 kts | 314° |
| 2026-04-11 03:41 | 52.87749 | 4.18764 | 33959 ft | 416 kts | 313° |
| 2026-04-11 03:41 | 52.92466 | 4.13218 | 33959 ft | 416 kts | 313° |
| 2026-04-11 03:42 | 52.97180 | 4.07662 | 33963 ft | 415 kts | 313° |
| 2026-04-11 03:42 | 53.01891 | 4.02095 | 33952 ft | 416 kts | 313° |
| 2026-04-11 03:43 | 53.06624 | 3.96476 | 33944 ft | 418 kts | 313° |
| 2026-04-11 03:43 | 53.11360 | 3.90846 | 33945 ft | 419 kts | 313° |
| 2026-04-11 03:44 | 53.16106 | 3.85194 | 33942 ft | 418 kts | 313° |
| 2026-04-11 03:44 | 53.20820 | 3.79562 | 33931 ft | 418 kts | 313° |
| 2026-04-11 03:45 | 53.25548 | 3.73899 | 33960 ft | 417 kts | 313° |
| 2026-04-11 03:45 | 53.30236 | 3.68264 | 33932 ft | 417 kts | 313° |
| 2026-04-11 03:46 | 53.34958 | 3.62591 | 33956 ft | 419 kts | 314° |
| 2026-04-11 03:46 | 53.37507 | 3.60045 | 33933 ft | 431 kts | 322° |
| 2026-04-11 03:46 | 53.40323 | 3.58113 | 33944 ft | 446 kts | 331° |
| 2026-04-11 03:47 | 53.43420 | 3.56947 | 33943 ft | 465 kts | 342° |
| 2026-04-11 03:47 | 53.46719 | 3.56695 | 33945 ft | 482 kts | 351° |
| 2026-04-11 03:47 | 53.53449 | 3.57248 | 33933 ft | 490 kts | 353° |
| 2026-04-11 03:48 | 53.60254 | 3.58045 | 33934 ft | 489 kts | 353° |
| 2026-04-11 03:48 | 53.67045 | 3.58794 | 33934 ft | 488 kts | 353° |
| 2026-04-11 03:49 | 53.73831 | 3.59486 | 33933 ft | 486 kts | 352° |
| 2026-04-11 03:49 | 53.80526 | 3.60156 | 33932 ft | 484 kts | 352° |
| 2026-04-11 03:50 | 53.87270 | 3.60826 | 33928 ft | 485 kts | 352° |
| 2026-04-11 03:50 | 53.94003 | 3.61500 | 33925 ft | 485 kts | 352° |
| 2026-04-11 03:51 | 54.00729 | 3.62183 | 33922 ft | 483 kts | 352° |
| 2026-04-11 03:51 | 54.07444 | 3.62868 | 33923 ft | 482 kts | 352° |
| 2026-04-11 03:52 | 54.14132 | 3.63547 | 33923 ft | 482 kts | 352° |
| 2026-04-11 03:52 | 54.20814 | 3.64227 | 33936 ft | 483 kts | 352° |
| 2026-04-11 03:53 | 54.27422 | 3.63991 | 33926 ft | 462 kts | 337° |
| 2026-04-11 03:53 | 54.30467 | 3.62604 | 33928 ft | 444 kts | 327° |
| 2026-04-11 03:53 | 54.33213 | 3.60405 | 33919 ft | 428 kts | 317° |
| 2026-04-11 03:54 | 54.35581 | 3.57568 | 33917 ft | 414 kts | 308° |
| 2026-04-11 03:54 | 54.37809 | 3.54349 | 33914 ft | 412 kts | 307° |
| 2026-04-11 03:54 | 54.42065 | 3.47863 | 33916 ft | 411 kts | 306° |
| 2026-04-11 03:55 | 54.46316 | 3.41293 | 33916 ft | 412 kts | 306° |
| 2026-04-11 03:55 | 54.50597 | 3.34702 | 33905 ft | 412 kts | 307° |
| 2026-04-11 03:56 | 54.54889 | 3.28105 | 33900 ft | 413 kts | 307° |
| 2026-04-11 03:56 | 54.59167 | 3.21519 | 33900 ft | 413 kts | 306° |
| 2026-04-11 03:57 | 54.63430 | 3.14922 | 33902 ft | 417 kts | 306° |
| 2026-04-11 03:57 | 54.67773 | 3.08178 | 33898 ft | 422 kts | 306° |
| 2026-04-11 03:58 | 54.72138 | 3.01404 | 33907 ft | 421 kts | 306° |
| 2026-04-11 03:58 | 54.76491 | 2.94625 | 33885 ft | 420 kts | 306° |
| 2026-04-11 03:59 | 54.80226 | 2.87193 | 33885 ft | 399 kts | 291° |
| 2026-04-11 03:59 | 54.82731 | 2.78779 | 33876 ft | 390 kts | 285° |
| 2026-04-11 04:00 | 54.84995 | 2.70241 | 33905 ft | 390 kts | 284° |
| 2026-04-11 04:00 | 54.87243 | 2.61620 | 33883 ft | 393 kts | 284° |
| 2026-04-11 04:01 | 54.89496 | 2.53014 | 33860 ft | 394 kts | 284° |
| 2026-04-11 04:01 | 54.91773 | 2.44341 | 33861 ft | 394 kts | 284° |
| 2026-04-11 04:02 | 54.94047 | 2.35651 | 33852 ft | 394 kts | 284° |
| 2026-04-11 04:02 | 54.96310 | 2.26958 | 33851 ft | 394 kts | 284° |
| 2026-04-11 04:03 | 54.98563 | 2.18266 | 33849 ft | 394 kts | 284° |
| 2026-04-11 04:03 | 55.00798 | 2.09607 | 33842 ft | 395 kts | 284° |
| 2026-04-11 04:04 | 55.03048 | 2.00856 | 33838 ft | 396 kts | 284° |
| 2026-04-11 04:04 | 55.05294 | 1.92092 | 33822 ft | 396 kts | 284° |
| 2026-04-11 04:05 | 55.07534 | 1.83320 | 33816 ft | 396 kts | 284° |
| 2026-04-11 04:05 | 55.09769 | 1.74531 | 33807 ft | 395 kts | 283° |
| 2026-04-11 04:06 | 55.11618 | 1.67229 | 33806 ft | 395 kts | 283° |
| 2026-04-11 04:06 | 55.14201 | 1.56988 | 33812 ft | 397 kts | 282° |
| 2026-04-11 04:07 | 55.16420 | 1.48154 | 33791 ft | 397 kts | 282° |
| 2026-04-11 04:07 | 55.18644 | 1.39272 | 33790 ft | 397 kts | 282° |
| 2026-04-11 04:08 | 55.20846 | 1.30438 | 33779 ft | 397 kts | 282° |
| 2026-04-11 04:08 | 55.23051 | 1.21558 | 33776 ft | 397 kts | 282° |
| 2026-04-11 04:09 | 55.25247 | 1.12677 | 33777 ft | 397 kts | 282° |
| 2026-04-11 04:09 | 55.27441 | 1.03757 | 33765 ft | 400 kts | 282° |
| 2026-04-11 04:10 | 55.29650 | 0.94718 | 33757 ft | 406 kts | 282° |
| 2026-04-11 04:10 | 55.31879 | 0.85599 | 33741 ft | 406 kts | 282° |
| 2026-04-11 04:11 | 55.34101 | 0.76489 | 33742 ft | 405 kts | 282° |
| 2026-04-11 04:11 | 55.36296 | 0.67433 | 33742 ft | 405 kts | 282° |
| 2026-04-11 04:12 | 55.38495 | 0.58310 | 33722 ft | 405 kts | 281° |
| 2026-04-11 04:12 | 55.40695 | 0.49143 | 33727 ft | 407 kts | 281° |
| 2026-04-11 04:13 | 55.42897 | 0.39906 | 33708 ft | 412 kts | 281° |
| 2026-04-11 04:13 | 55.45121 | 0.30573 | 33709 ft | 412 kts | 281° |
| 2026-04-11 04:14 | 55.47912 | 0.21600 | 33692 ft | 430 kts | 292° |
| 2026-04-11 04:14 | 55.51413 | 0.13005 | 33689 ft | 433 kts | 294° |
| 2026-04-11 04:15 | 55.56849 | 0.00181 | 33690 ft | 434 kts | 294° |
| 2026-04-11 04:16 | 55.60457 | -0.08396 | 33674 ft | 436 kts | 294° |
| 2026-04-11 04:16 | 55.64051 | -0.17016 | 33673 ft | 438 kts | 294° |
| 2026-04-11 04:17 | 55.67660 | -0.25697 | 33679 ft | 438 kts | 294° |
| 2026-04-11 04:17 | 55.71275 | -0.34424 | 33672 ft | 437 kts | 294° |
| 2026-04-11 04:18 | 55.74853 | -0.43097 | 33674 ft | 437 kts | 294° |
| 2026-04-11 04:18 | 55.78440 | -0.51823 | 33694 ft | 437 kts | 293° |
| 2026-04-11 04:19 | 55.82023 | -0.60568 | 33654 ft | 436 kts | 293° |
| 2026-04-11 04:19 | 55.85586 | -0.69295 | 33636 ft | 436 kts | 293° |
| 2026-04-11 04:20 | 55.88538 | -0.76555 | 33640 ft | 436 kts | 293° |
| 2026-04-11 04:20 | 55.92087 | -0.85310 | 33636 ft | 436 kts | 293° |
| 2026-04-11 04:21 | 55.95637 | -0.94096 | 33616 ft | 435 kts | 293° |
| 2026-04-11 04:21 | 55.99177 | -1.02889 | 33616 ft | 435 kts | 293° |
| 2026-04-11 04:22 | 56.02685 | -1.11635 | 33618 ft | 435 kts | 292° |
| 2026-04-11 04:22 | 56.06213 | -1.20466 | 33606 ft | 438 kts | 292° |
| 2026-04-11 04:23 | 56.09765 | -1.29395 | 33597 ft | 440 kts | 292° |
| 2026-04-11 04:23 | 56.13316 | -1.38336 | 33582 ft | 440 kts | 292° |
| 2026-04-11 04:24 | 56.16857 | -1.47284 | 33582 ft | 440 kts | 292° |
| 2026-04-11 04:24 | 56.20370 | -1.56201 | 33581 ft | 439 kts | 292° |
| 2026-04-11 04:25 | 56.23894 | -1.65182 | 33565 ft | 439 kts | 292° |
| 2026-04-11 04:25 | 56.27409 | -1.74171 | 33592 ft | 440 kts | 292° |
| 2026-04-11 04:26 | 56.30941 | -1.83255 | 33581 ft | 445 kts | 292° |
| 2026-04-11 04:26 | 56.34504 | -1.92447 | 33541 ft | 449 kts | 292° |
| 2026-04-11 04:27 | 56.38085 | -2.01695 | 33560 ft | 448 kts | 292° |
| 2026-04-11 04:27 | 56.41628 | -2.10878 | 33527 ft | 448 kts | 292° |
| 2026-04-11 04:28 | 56.45178 | -2.20125 | 33549 ft | 448 kts | 292° |
| 2026-04-11 04:28 | 56.48726 | -2.29409 | 33529 ft | 448 kts | 292° |
| 2026-04-11 04:29 | 56.52270 | -2.38728 | 33538 ft | 451 kts | 292° |
| 2026-04-11 04:29 | 56.55834 | -2.48138 | 33554 ft | 455 kts | 292° |
| 2026-04-11 04:30 | 56.59392 | -2.57546 | 33535 ft | 455 kts | 292° |
| 2026-04-11 04:30 | 56.62972 | -2.67044 | 33543 ft | 455 kts | 292° |
| 2026-04-11 04:31 | 56.66537 | -2.76548 | 33543 ft | 454 kts | 292° |
| 2026-04-11 04:31 | 56.70090 | -2.86060 | 33533 ft | 454 kts | 292° |
| 2026-04-11 04:32 | 56.73634 | -2.95592 | 33554 ft | 456 kts | 291° |
| 2026-04-11 04:32 | 56.77178 | -3.05174 | 33530 ft | 460 kts | 291° |
| 2026-04-11 04:33 | 56.80755 | -3.14865 | 33564 ft | 461 kts | 292° |
| 2026-04-11 04:33 | 56.84346 | -3.24629 | 33535 ft | 464 kts | 291° |
| 2026-04-11 04:34 | 56.87937 | -3.34433 | 33528 ft | 465 kts | 292° |
| 2026-04-11 04:34 | 56.91523 | -3.44260 | 33520 ft | 464 kts | 291° |
| 2026-04-11 04:35 | 56.95106 | -3.54123 | 33564 ft | 465 kts | 292° |
| 2026-04-11 04:35 | 56.98689 | -3.64049 | 33519 ft | 470 kts | 292° |
| 2026-04-11 04:36 | 57.02290 | -3.74065 | 33504 ft | 475 kts | 292° |
| 2026-04-11 04:36 | 57.05931 | -3.84204 | 33495 ft | 474 kts | 292° |
| 2026-04-11 04:37 | 57.09551 | -3.94323 | 33496 ft | 474 kts | 292° |
| 2026-04-11 04:37 | 57.13163 | -4.04475 | 33482 ft | 474 kts | 292° |
| 2026-04-11 04:38 | 57.16764 | -4.14643 | 33483 ft | 473 kts | 292° |
| 2026-04-11 04:38 | 57.20358 | -4.24852 | 33477 ft | 477 kts | 292° |
| 2026-04-11 04:39 | 57.23982 | -4.35184 | 33463 ft | 480 kts | 292° |
| 2026-04-11 04:39 | 57.27588 | -4.45485 | 33461 ft | 480 kts | 292° |
| 2026-04-11 04:40 | 57.31214 | -4.55884 | 33455 ft | 479 kts | 293° |
| 2026-04-11 04:40 | 57.34816 | -4.66273 | 33454 ft | 480 kts | 293° |
| 2026-04-11 04:41 | 57.38418 | -4.76718 | 33453 ft | 481 kts | 293° |
| 2026-04-11 04:41 | 57.42019 | -4.87204 | 33442 ft | 481 kts | 293° |
| 2026-04-11 04:42 | 57.45583 | -4.97621 | 33424 ft | 480 kts | 293° |
| 2026-04-11 04:42 | 57.49156 | -5.08105 | 33420 ft | 480 kts | 293° |
| 2026-04-11 04:43 | 57.52703 | -5.18569 | 33405 ft | 479 kts | 293° |
| 2026-04-11 04:43 | 57.56255 | -5.29089 | 33410 ft | 481 kts | 293° |
| 2026-04-11 04:44 | 57.59816 | -5.39688 | 33377 ft | 482 kts | 293° |
| 2026-04-11 04:44 | 57.63364 | -5.50285 | 33380 ft | 482 kts | 293° |
| 2026-04-11 04:45 | 57.66904 | -5.60907 | 33366 ft | 481 kts | 293° |
| 2026-04-11 04:45 | 57.70432 | -5.71549 | 33351 ft | 481 kts | 293° |
| 2026-04-11 04:46 | 57.73951 | -5.82210 | 33336 ft | 481 kts | 293° |
| 2026-04-11 04:46 | 57.77461 | -5.92887 | 33336 ft | 481 kts | 293° |
| 2026-04-11 04:47 | 57.80934 | -6.03503 | 33335 ft | 482 kts | 293° |
| 2026-04-11 04:47 | 57.84435 | -6.14261 | 33336 ft | 484 kts | 294° |
| 2026-04-11 04:48 | 57.87952 | -6.25109 | 33321 ft | 486 kts | 294° |
| 2026-04-11 04:48 | 57.91470 | -6.36000 | 33326 ft | 487 kts | 294° |
| 2026-04-11 04:49 | 57.94973 | -6.46899 | 33332 ft | 486 kts | 293° |
| 2026-04-11 04:49 | 57.98465 | -6.57812 | 33315 ft | 486 kts | 293° |
| 2026-04-11 04:50 | 58.01947 | -6.68753 | 33297 ft | 486 kts | 293° |
| 2026-04-11 04:50 | 58.05404 | -6.79667 | 33299 ft | 487 kts | 293° |
| 2026-04-11 04:51 | 58.08871 | -6.90663 | 33275 ft | 488 kts | 293° |
| 2026-04-11 04:51 | 58.12326 | -7.01664 | 33276 ft | 488 kts | 293° |
| 2026-04-11 04:52 | 58.15783 | -7.12728 | 33280 ft | 488 kts | 293° |
| 2026-04-11 04:52 | 58.19229 | -7.23808 | 33263 ft | 488 kts | 293° |
| 2026-04-11 04:53 | 58.22666 | -7.34912 | 33263 ft | 487 kts | 293° |
| 2026-04-11 04:53 | 58.26068 | -7.45959 | 33284 ft | 488 kts | 293° |
| 2026-04-11 04:54 | 58.29494 | -7.57142 | 33245 ft | 490 kts | 293° |
| 2026-04-11 04:54 | 58.32924 | -7.68383 | 33244 ft | 491 kts | 293° |
| 2026-04-11 04:55 | 58.36343 | -7.79638 | 33225 ft | 491 kts | 293° |
| 2026-04-11 04:55 | 58.39733 | -7.90850 | 33226 ft | 491 kts | 293° |
| 2026-04-11 04:56 | 58.43129 | -8.02143 | 33210 ft | 491 kts | 293° |
| 2026-04-11 04:56 | 58.46518 | -8.13470 | 33252 ft | 491 kts | 293° |
| 2026-04-11 04:57 | 58.49902 | -8.24838 | 33204 ft | 491 kts | 293° |
| 2026-04-11 04:57 | 58.53271 | -8.36201 | 33207 ft | 491 kts | 293° |
| 2026-04-11 04:58 | 58.56639 | -8.47620 | 33193 ft | 491 kts | 293° |
| 2026-04-11 04:58 | 58.59966 | -8.58955 | 33173 ft | 491 kts | 293° |
| 2026-04-11 04:59 | 58.63304 | -8.70384 | 33177 ft | 491 kts | 293° |
| 2026-04-11 04:59 | 58.66637 | -8.81855 | 33205 ft | 491 kts | 293° |
| 2026-04-11 05:00 | 58.69953 | -8.93327 | 33154 ft | 490 kts | 294° |
| 2026-04-11 05:00 | 58.73255 | -9.04804 | 33162 ft | 490 kts | 294° |
| 2026-04-11 05:01 | 58.76561 | -9.16353 | 33142 ft | 492 kts | 294° |
| 2026-04-11 05:01 | 58.79826 | -9.27815 | 33138 ft | 492 kts | 294° |
| 2026-04-11 05:02 | 58.83114 | -9.39415 | 33127 ft | 491 kts | 293° |
| 2026-04-11 05:02 | 58.86385 | -9.51012 | 33125 ft | 491 kts | 293° |
| 2026-04-11 05:03 | 58.89638 | -9.62608 | 33127 ft | 490 kts | 294° |
| 2026-04-11 05:03 | 58.92336 | -9.72268 | 33114 ft | 489 kts | 294° |
| 2026-04-11 05:04 | 58.96080 | -9.85744 | 33116 ft | 489 kts | 294° |
| 2026-04-11 05:04 | 58.99302 | -9.97408 | 33111 ft | 491 kts | 294° |
| 2026-04-11 05:05 | 59.03923 | -10.15135 | 33105 ft | 489 kts | 291° |
| 2026-04-11 05:05 | 59.06838 | -10.27087 | 33125 ft | 489 kts | 291° |
| 2026-04-11 05:06 | 59.09270 | -10.36999 | 33097 ft | 489 kts | 291° |
| 2026-04-11 05:06 | 59.12701 | -10.50912 | 33097 ft | 489 kts | 291° |
| 2026-04-11 05:07 | 59.15160 | -10.60911 | 33078 ft | 490 kts | 291° |
| 2026-04-11 05:07 | 59.18095 | -10.72902 | 33089 ft | 490 kts | 291° |
| 2026-04-11 05:08 | 59.21016 | -10.84907 | 33068 ft | 491 kts | 291° |
| 2026-04-11 05:08 | 59.23933 | -10.96968 | 33066 ft | 490 kts | 291° |
| 2026-04-11 05:09 | 59.26833 | -11.09024 | 33082 ft | 489 kts | 292° |
| 2026-04-11 05:09 | 59.29700 | -11.21004 | 33065 ft | 490 kts | 291° |
| 2026-04-11 05:10 | 59.32582 | -11.33123 | 33062 ft | 492 kts | 291° |
| 2026-04-11 05:10 | 59.35456 | -11.45266 | 33063 ft | 491 kts | 291° |
| 2026-04-11 05:11 | 59.38333 | -11.57499 | 33056 ft | 494 kts | 291° |
| 2026-04-11 05:11 | 59.41204 | -11.69762 | 33065 ft | 494 kts | 292° |
| 2026-04-11 05:12 | 59.44038 | -11.81950 | 33065 ft | 493 kts | 291° |
| 2026-04-11 05:12 | 59.46886 | -11.94272 | 33060 ft | 495 kts | 291° |
| 2026-04-11 05:13 | 59.49716 | -12.06579 | 33051 ft | 493 kts | 292° |
| 2026-04-11 05:13 | 59.52530 | -12.18883 | 33069 ft | 492 kts | 291° |
| 2026-04-11 05:14 | 59.55338 | -12.31249 | 33053 ft | 495 kts | 291° |
| 2026-04-11 05:14 | 59.58153 | -12.43703 | 33052 ft | 499 kts | 291° |
| 2026-04-11 05:15 | 59.60984 | -12.56311 | 33071 ft | 506 kts | 292° |
| 2026-04-11 05:15 | 59.63845 | -12.69119 | 33045 ft | 511 kts | 292° |
| 2026-04-11 05:16 | 59.66674 | -12.81858 | 33081 ft | 508 kts | 292° |
| 2026-04-11 05:16 | 59.69497 | -12.94649 | 33048 ft | 503 kts | 292° |
| 2026-04-11 05:17 | 59.72288 | -13.07381 | 33048 ft | 504 kts | 291° |
| 2026-04-11 05:17 | 59.75079 | -13.20196 | 33083 ft | 507 kts | 291° |
| 2026-04-11 05:18 | 59.77863 | -13.33052 | 33076 ft | 507 kts | 292° |
| 2026-04-11 05:18 | 59.80634 | -13.45919 | 33086 ft | 507 kts | 292° |
| 2026-04-11 05:19 | 59.83372 | -13.58719 | 33095 ft | 504 kts | 292° |
| 2026-04-11 05:19 | 59.86105 | -13.71576 | 33079 ft | 504 kts | 292° |
| 2026-04-11 05:20 | 59.88814 | -13.84400 | 33097 ft | 501 kts | 292° |
| 2026-04-11 05:20 | 59.91510 | -13.97241 | 33111 ft | 503 kts | 291° |
| 2026-04-11 05:21 | 59.94200 | -14.10135 | 33088 ft | 504 kts | 291° |
| 2026-04-11 05:21 | 59.96888 | -14.23101 | 33084 ft | 506 kts | 291° |
| 2026-04-11 05:22 | 59.99550 | -14.36025 | 33109 ft | 505 kts | 292° |
| 2026-04-11 05:22 | 60.02204 | -14.48990 | 33107 ft | 502 kts | 292° |
| 2026-04-11 05:23 | 60.04837 | -14.61931 | 33097 ft | 501 kts | 291° |
| 2026-04-11 05:23 | 60.07453 | -14.74874 | 33114 ft | 502 kts | 291° |
| 2026-04-11 05:24 | 60.10062 | -14.87868 | 33123 ft | 501 kts | 292° |
| 2026-04-11 05:24 | 60.12639 | -15.00786 | 33105 ft | 502 kts | 292° |
| 2026-04-11 05:25 | 60.15226 | -15.13835 | 33112 ft | 502 kts | 292° |
| 2026-04-11 05:25 | 60.17791 | -15.26859 | 33122 ft | 501 kts | 291° |
| 2026-04-11 05:26 | 60.20333 | -15.39851 | 33119 ft | 502 kts | 291° |
| 2026-04-11 05:26 | 60.22887 | -15.52993 | 33137 ft | 505 kts | 291° |
| 2026-04-11 05:27 | 60.25425 | -15.66145 | 33147 ft | 506 kts | 292° |
| 2026-04-11 05:27 | 60.27975 | -15.79445 | 33155 ft | 511 kts | 292° |
| 2026-04-11 05:28 | 60.30527 | -15.92830 | 33142 ft | 508 kts | 291° |
| 2026-04-11 05:28 | 60.33040 | -16.06115 | 33142 ft | 506 kts | 291° |
| 2026-04-11 05:29 | 60.35521 | -16.19320 | 33159 ft | 499 kts | 291° |
| 2026-04-11 05:29 | 60.37979 | -16.32495 | 33170 ft | 505 kts | 291° |
| 2026-04-11 05:30 | 60.40464 | -16.45899 | 33186 ft | 512 kts | 292° |
| 2026-04-11 05:30 | 60.42964 | -16.59461 | 33197 ft | 514 kts | 291° |
| 2026-04-11 05:31 | 60.45411 | -16.72851 | 33205 ft | 509 kts | 291° |
| 2026-04-11 05:31 | 60.47845 | -16.86261 | 33195 ft | 502 kts | 291° |
| 2026-04-11 05:32 | 60.50237 | -16.99558 | 33243 ft | 504 kts | 291° |
| 2026-04-11 05:32 | 60.52637 | -17.12969 | 33239 ft | 511 kts | 292° |
| 2026-04-11 05:33 | 60.55065 | -17.26629 | 33236 ft | 516 kts | 291° |
| 2026-04-11 05:33 | 60.57458 | -17.40198 | 33274 ft | 506 kts | 291° |
| 2026-04-11 05:34 | 60.59808 | -17.53617 | 33271 ft | 499 kts | 291° |
| 2026-04-11 05:34 | 60.62117 | -17.66899 | 33288 ft | 503 kts | 291° |
| 2026-04-11 05:35 | 60.64456 | -17.80428 | 33278 ft | 508 kts | 291° |
| 2026-04-11 05:35 | 60.66801 | -17.94111 | 33260 ft | 512 kts | 290° |
| 2026-04-11 05:36 | 60.69115 | -18.07719 | 33290 ft | 502 kts | 290° |
| 2026-04-11 05:36 | 60.71358 | -18.21023 | 33314 ft | 490 kts | 291° |
| 2026-04-11 05:37 | 60.73568 | -18.34199 | 33320 ft | 496 kts | 290° |
| 2026-04-11 05:37 | 60.75807 | -18.47668 | 33324 ft | 502 kts | 291° |
| 2026-04-11 05:38 | 60.78057 | -18.61272 | 33347 ft | 504 kts | 291° |
| 2026-04-11 05:38 | 60.80276 | -18.74810 | 33353 ft | 498 kts | 290° |
| 2026-04-11 05:39 | 60.82436 | -18.88097 | 33353 ft | 491 kts | 290° |
| 2026-04-11 05:39 | 60.84596 | -19.01482 | 33384 ft | 496 kts | 290° |
| 2026-04-11 05:40 | 60.86762 | -19.14996 | 33367 ft | 502 kts | 290° |
| 2026-04-11 05:40 | 60.88942 | -19.28640 | 33375 ft | 502 kts | 290° |
| 2026-04-11 05:41 | 60.91082 | -19.42218 | 33408 ft | 495 kts | 289° |
| 2026-04-11 05:41 | 60.93190 | -19.55705 | 33422 ft | 496 kts | 289° |
| 2026-04-11 05:42 | 60.95302 | -19.69297 | 33417 ft | 499 kts | 289° |
| 2026-04-11 05:42 | 60.97404 | -19.82924 | 33440 ft | 497 kts | 288° |
| 2026-04-11 05:43 | 60.99457 | -19.96347 | 33448 ft | 493 kts | 288° |
| 2026-04-11 05:43 | 61.01450 | -20.09746 | 33453 ft | 487 kts | 287° |
| 2026-04-11 05:44 | 61.03311 | -20.23274 | 33460 ft | 492 kts | 287° |
| 2026-04-11 05:44 | 61.05167 | -20.36934 | 33485 ft | 495 kts | 286° |
| 2026-04-11 05:45 | 61.07026 | -20.50560 | 33475 ft | 491 kts | 287° |
| 2026-04-11 05:45 | 61.08854 | -20.64018 | 33506 ft | 480 kts | 287° |
| 2026-04-11 05:46 | 61.10650 | -20.77327 | 33503 ft | 482 kts | 287° |
| 2026-04-11 05:46 | 61.12437 | -20.90687 | 33505 ft | 487 kts | 286° |
| 2026-04-11 05:47 | 61.14225 | -21.04170 | 33537 ft | 484 kts | 286° |
| 2026-04-11 05:47 | 61.15987 | -21.17586 | 33530 ft | 481 kts | 286° |
| 2026-04-11 05:48 | 61.17735 | -21.31004 | 33534 ft | 482 kts | 286° |
| 2026-04-11 05:48 | 61.19472 | -21.44461 | 33566 ft | 483 kts | 285° |
| 2026-04-11 05:49 | 61.21190 | -21.57886 | 33574 ft | 480 kts | 285° |
| 2026-04-11 05:49 | 61.22882 | -21.71223 | 33570 ft | 477 kts | 285° |
| 2026-04-11 05:50 | 61.24553 | -21.84507 | 33584 ft | 480 kts | 285° |
| 2026-04-11 05:50 | 61.26236 | -21.98010 | 33581 ft | 482 kts | 285° |
| 2026-04-11 05:51 | 61.27903 | -22.11500 | 33592 ft | 480 kts | 285° |
| 2026-04-11 05:51 | 61.29544 | -22.24921 | 33596 ft | 478 kts | 285° |
| 2026-04-11 05:52 | 61.30901 | -22.36100 | 33615 ft | 481 kts | 284° |
| 2026-04-11 05:52 | 61.32808 | -22.51952 | 33605 ft | 487 kts | 284° |
| 2026-04-11 05:53 | 61.34162 | -22.63325 | 33614 ft | 483 kts | 284° |
| 2026-04-11 05:53 | 61.36020 | -22.79069 | 33639 ft | 482 kts | 284° |
| 2026-04-11 05:54 | 61.37353 | -22.90472 | 33638 ft | 485 kts | 284° |
| 2026-04-11 05:54 | 61.38935 | -23.04124 | 33648 ft | 484 kts | 283° |
| 2026-04-11 05:55 | 61.40492 | -23.17694 | 33658 ft | 476 kts | 283° |
| 2026-04-11 05:55 | 61.42021 | -23.31157 | 33656 ft | 477 kts | 283° |
| 2026-04-11 05:56 | 61.43536 | -23.44614 | 33666 ft | 479 kts | 283° |
| 2026-04-11 05:56 | 61.45048 | -23.58179 | 33676 ft | 477 kts | 283° |
| 2026-04-11 05:57 | 61.46535 | -23.71656 | 33684 ft | 475 kts | 283° |
| 2026-04-11 05:57 | 61.48004 | -23.85103 | 33683 ft | 478 kts | 282° |
| 2026-04-11 05:58 | 61.49473 | -23.98681 | 33677 ft | 477 kts | 282° |
| 2026-04-11 05:58 | 61.50921 | -24.12200 | 33699 ft | 474 kts | 282° |
| 2026-04-11 05:59 | 61.52348 | -24.25664 | 33697 ft | 474 kts | 282° |
| 2026-04-11 05:59 | 61.53768 | -24.39206 | 33698 ft | 476 kts | 282° |
| 2026-04-11 06:00 | 61.55170 | -24.52717 | 33714 ft | 475 kts | 281° |
| 2026-04-11 06:00 | 61.56561 | -24.66245 | 33717 ft | 474 kts | 281° |
| 2026-04-11 06:01 | 61.57938 | -24.79787 | 33719 ft | 475 kts | 281° |
| 2026-04-11 06:01 | 61.59295 | -24.93280 | 33721 ft | 473 kts | 281° |
| 2026-04-11 06:02 | 61.60638 | -25.06774 | 33718 ft | 471 kts | 280° |
| 2026-04-11 06:02 | 61.61970 | -25.20307 | 33722 ft | 472 kts | 280° |
| 2026-04-11 06:03 | 61.63280 | -25.33764 | 33722 ft | 472 kts | 280° |
| 2026-04-11 06:03 | 61.64584 | -25.47307 | 33733 ft | 472 kts | 280° |
| 2026-04-11 06:04 | 61.65873 | -25.60839 | 33732 ft | 472 kts | 279° |
| 2026-04-11 06:04 | 61.67146 | -25.74359 | 33733 ft | 472 kts | 279° |
| 2026-04-11 06:05 | 61.68407 | -25.87905 | 33739 ft | 471 kts | 280° |
| 2026-04-11 06:05 | 61.69656 | -26.01472 | 33741 ft | 471 kts | 280° |
| 2026-04-11 06:06 | 61.71496 | -26.21756 | 33745 ft | 471 kts | 279° |
| 2026-04-11 06:07 | 61.72711 | -26.35344 | 33750 ft | 471 kts | 279° |
| 2026-04-11 06:07 | 61.73911 | -26.48935 | 33749 ft | 471 kts | 279° |
| 2026-04-11 06:08 | 61.75099 | -26.62539 | 33750 ft | 469 kts | 279° |
| 2026-04-11 06:08 | 61.76264 | -26.76047 | 33752 ft | 466 kts | 279° |
| 2026-04-11 06:09 | 61.77407 | -26.89471 | 33756 ft | 466 kts | 279° |
| 2026-04-11 06:09 | 61.78541 | -27.02946 | 33754 ft | 466 kts | 279° |
| 2026-04-11 06:10 | 61.79664 | -27.16470 | 33758 ft | 466 kts | 279° |
| 2026-04-11 06:10 | 61.80771 | -27.29956 | 33757 ft | 466 kts | 279° |
| 2026-04-11 06:11 | 61.81861 | -27.43407 | 33762 ft | 466 kts | 278° |
| 2026-04-11 06:11 | 61.82937 | -27.56864 | 33759 ft | 462 kts | 278° |
| 2026-04-11 06:12 | 61.83999 | -27.70308 | 33760 ft | 463 kts | 278° |
| 2026-04-11 06:12 | 61.85045 | -27.83739 | 33761 ft | 462 kts | 278° |
| 2026-04-11 06:13 | 61.86078 | -27.97178 | 33757 ft | 462 kts | 278° |
| 2026-04-11 06:13 | 61.87099 | -28.10625 | 33761 ft | 463 kts | 278° |
| 2026-04-11 06:14 | 61.88102 | -28.24024 | 33763 ft | 462 kts | 278° |
| 2026-04-11 06:14 | 61.89099 | -28.37545 | 33760 ft | 461 kts | 278° |
| 2026-04-11 06:15 | 61.90072 | -28.50904 | 33763 ft | 459 kts | 278° |
| 2026-04-11 06:15 | 61.91032 | -28.64279 | 33761 ft | 458 kts | 278° |
| 2026-04-11 06:16 | 61.91979 | -28.77660 | 33755 ft | 458 kts | 278° |
| 2026-04-11 06:16 | 61.92916 | -28.91083 | 33760 ft | 460 kts | 277° |
| 2026-04-11 06:17 | 61.93838 | -29.04493 | 33758 ft | 458 kts | 277° |
| 2026-04-11 06:17 | 61.94740 | -29.17824 | 33752 ft | 459 kts | 277° |
| 2026-04-11 06:18 | 61.95637 | -29.31263 | 33756 ft | 458 kts | 278° |
| 2026-04-11 06:18 | 61.96516 | -29.44640 | 33752 ft | 454 kts | 277° |
| 2026-04-11 06:19 | 61.97376 | -29.57934 | 33750 ft | 454 kts | 277° |
| 2026-04-11 06:19 | 61.98224 | -29.71243 | 33752 ft | 456 kts | 277° |
| 2026-04-11 06:20 | 61.99061 | -29.84580 | 33751 ft | 454 kts | 277° |
| 2026-04-11 06:20 | 61.99884 | -29.97925 | 33745 ft | 455 kts | 277° |
| 2026-04-11 06:21 | 62.00562 | -30.11371 | 33749 ft | 456 kts | 274° |
| 2026-04-11 06:21 | 62.00969 | -30.24842 | 33743 ft | 456 kts | 274° |
| 2026-04-11 06:22 | 62.01360 | -30.38246 | 33735 ft | 457 kts | 274° |
| 2026-04-11 06:22 | 62.01785 | -30.51775 | 33734 ft | 456 kts | 274° |
| 2026-04-11 06:23 | 62.02216 | -30.65250 | 33740 ft | 456 kts | 274° |
| 2026-04-11 06:23 | 62.02638 | -30.78761 | 33740 ft | 457 kts | 274° |
| 2026-04-11 06:24 | 62.03045 | -30.92265 | 33733 ft | 456 kts | 274° |
| 2026-04-11 06:24 | 62.03438 | -31.05793 | 33732 ft | 458 kts | 274° |
| 2026-04-11 06:25 | 62.03815 | -31.19244 | 33732 ft | 456 kts | 274° |
| 2026-04-11 06:25 | 62.04181 | -31.32760 | 33734 ft | 457 kts | 273° |
| 2026-04-11 06:26 | 62.04532 | -31.46227 | 33727 ft | 457 kts | 273° |
| 2026-04-11 06:26 | 62.04871 | -31.59735 | 33727 ft | 457 kts | 273° |
| 2026-04-11 06:27 | 62.05198 | -31.73300 | 33726 ft | 457 kts | 273° |
| 2026-04-11 06:27 | 62.05512 | -31.86847 | 33732 ft | 457 kts | 273° |
| 2026-04-11 06:28 | 62.05808 | -32.00310 | 33738 ft | 454 kts | 274° |
| 2026-04-11 06:28 | 62.06092 | -32.13690 | 33738 ft | 450 kts | 274° |
| 2026-04-11 06:29 | 62.06361 | -32.26977 | 33749 ft | 451 kts | 273° |
| 2026-04-11 06:29 | 62.06619 | -32.40358 | 33750 ft | 451 kts | 274° |
| 2026-04-11 06:30 | 62.06864 | -32.53700 | 33749 ft | 450 kts | 273° |
| 2026-04-11 06:30 | 62.07097 | -32.67129 | 33766 ft | 453 kts | 272° |
| 2026-04-11 06:31 | 62.07314 | -32.80476 | 33763 ft | 452 kts | 273° |
| 2026-04-11 06:31 | 62.07521 | -32.93988 | 33784 ft | 454 kts | 273° |
| 2026-04-11 06:32 | 62.07713 | -33.07358 | 33784 ft | 452 kts | 273° |
| 2026-04-11 06:32 | 62.07894 | -33.20807 | 33783 ft | 453 kts | 272° |
| 2026-04-11 06:33 | 62.08061 | -33.34172 | 33793 ft | 453 kts | 273° |
| 2026-04-11 06:33 | 62.08215 | -33.47585 | 33800 ft | 452 kts | 272° |
| 2026-04-11 06:34 | 62.08357 | -33.61056 | 33804 ft | 453 kts | 272° |
| 2026-04-11 06:34 | 62.08485 | -33.74421 | 33808 ft | 453 kts | 272° |
| 2026-04-11 06:35 | 62.08600 | -33.87881 | 33812 ft | 453 kts | 272° |
| 2026-04-11 06:35 | 62.08703 | -34.01346 | 33816 ft | 454 kts | 272° |
| 2026-04-11 06:36 | 62.08792 | -34.14842 | 33816 ft | 454 kts | 272° |
| 2026-04-11 06:36 | 62.08868 | -34.28250 | 33816 ft | 454 kts | 272° |
| 2026-04-11 06:37 | 62.08931 | -34.41731 | 33827 ft | 454 kts | 272° |
| 2026-04-11 06:37 | 62.08982 | -34.55250 | 33823 ft | 453 kts | 272° |
| 2026-04-11 06:38 | 62.09018 | -34.68694 | 33830 ft | 452 kts | 271° |
| 2026-04-11 06:38 | 62.09042 | -34.82091 | 33830 ft | 452 kts | 271° |
| 2026-04-11 06:39 | 62.09053 | -34.95429 | 33835 ft | 452 kts | 271° |
| 2026-04-11 06:39 | 62.09051 | -35.08855 | 33838 ft | 452 kts | 271° |
| 2026-04-11 06:40 | 62.09036 | -35.22276 | 33838 ft | 453 kts | 271° |
| 2026-04-11 06:40 | 62.09008 | -35.35724 | 33838 ft | 453 kts | 271° |
| 2026-04-11 06:41 | 62.08967 | -35.49070 | 33838 ft | 451 kts | 271° |
| 2026-04-11 06:41 | 62.08912 | -35.62462 | 33839 ft | 449 kts | 271° |
| 2026-04-11 06:42 | 62.08858 | -35.73563 | 33837 ft | 450 kts | 271° |
| 2026-04-11 06:42 | 62.08767 | -35.89075 | 33842 ft | 449 kts | 270° |
| 2026-04-11 06:43 | 62.08691 | -36.00207 | 33847 ft | 449 kts | 270° |
| 2026-04-11 06:43 | 62.08588 | -36.13556 | 33841 ft | 450 kts | 270° |
| 2026-04-11 06:44 | 62.08472 | -36.26900 | 33821 ft | 450 kts | 270° |
| 2026-04-11 06:44 | 62.08344 | -36.40154 | 33844 ft | 448 kts | 270° |
| 2026-04-11 06:45 | 62.08203 | -36.53474 | 33842 ft | 449 kts | 270° |
| 2026-04-11 06:45 | 62.08049 | -36.66794 | 33845 ft | 449 kts | 270° |
| 2026-04-11 06:46 | 62.07882 | -36.80126 | 33839 ft | 449 kts | 270° |
| 2026-04-11 06:46 | 62.07702 | -36.93434 | 33845 ft | 449 kts | 269° |
| 2026-04-11 06:47 | 62.07510 | -37.06683 | 33841 ft | 449 kts | 269° |
| 2026-04-11 06:47 | 62.07305 | -37.19993 | 33836 ft | 448 kts | 269° |
| 2026-04-11 06:48 | 62.07087 | -37.33274 | 33838 ft | 446 kts | 269° |
| 2026-04-11 06:48 | 62.06859 | -37.46422 | 33842 ft | 446 kts | 269° |
| 2026-04-11 06:49 | 62.06618 | -37.59651 | 33840 ft | 446 kts | 269° |
| 2026-04-11 06:49 | 62.06363 | -37.72896 | 33842 ft | 447 kts | 269° |
| 2026-04-11 06:50 | 62.06096 | -37.86129 | 33836 ft | 448 kts | 269° |
| 2026-04-11 06:50 | 62.05814 | -37.99430 | 33844 ft | 448 kts | 269° |
| 2026-04-11 06:51 | 62.05521 | -38.12653 | 33846 ft | 445 kts | 268° |
| 2026-04-11 06:51 | 62.05219 | -38.25730 | 33840 ft | 444 kts | 268° |
| 2026-04-11 06:52 | 62.04903 | -38.38876 | 33845 ft | 444 kts | 268° |
| 2026-04-11 06:52 | 62.04575 | -38.51986 | 33843 ft | 444 kts | 268° |
| 2026-04-11 06:53 | 62.04234 | -38.65113 | 33832 ft | 444 kts | 268° |
| 2026-04-11 06:53 | 62.03881 | -38.78250 | 33838 ft | 444 kts | 268° |
| 2026-04-11 06:54 | 62.03515 | -38.91389 | 33828 ft | 444 kts | 268° |
| 2026-04-11 06:54 | 62.03137 | -39.04516 | 33840 ft | 443 kts | 268° |
| 2026-04-11 06:55 | 62.02749 | -39.17542 | 33844 ft | 443 kts | 267° |
| 2026-04-11 06:55 | 62.02347 | -39.30622 | 33844 ft | 442 kts | 267° |
| 2026-04-11 06:56 | 62.01932 | -39.43716 | 33841 ft | 442 kts | 267° |
| 2026-04-11 06:56 | 62.01506 | -39.56786 | 33842 ft | 443 kts | 267° |
| 2026-04-11 06:57 | 62.01069 | -39.69790 | 33838 ft | 443 kts | 267° |
| 2026-04-11 06:57 | 62.00618 | -39.82863 | 33841 ft | 443 kts | 267° |
| 2026-04-11 06:58 | 62.00121 | -39.95955 | 33835 ft | 443 kts | 263° |
| 2026-04-11 06:58 | 61.98682 | -40.08686 | 33838 ft | 444 kts | 255° |
| 2026-04-11 06:59 | 61.96798 | -40.21251 | 33839 ft | 445 kts | 253° |
| 2026-04-11 06:59 | 61.94838 | -40.33725 | 33832 ft | 445 kts | 253° |
| 2026-04-11 07:00 | 61.92884 | -40.46117 | 33835 ft | 445 kts | 253° |
| 2026-04-11 07:00 | 61.90920 | -40.58584 | 33838 ft | 443 kts | 253° |
| 2026-04-11 07:01 | 61.88965 | -40.70948 | 33856 ft | 439 kts | 253° |
| 2026-04-11 07:01 | 61.87016 | -40.83190 | 33863 ft | 439 kts | 253° |
| 2026-04-11 07:02 | 61.85051 | -40.95450 | 33863 ft | 439 kts | 253° |
| 2026-04-11 07:02 | 61.83087 | -41.07626 | 33864 ft | 439 kts | 253° |
| 2026-04-11 07:03 | 61.81102 | -41.19838 | 33869 ft | 440 kts | 252° |
| 2026-04-11 07:03 | 61.79098 | -41.32081 | 33868 ft | 440 kts | 252° |
| 2026-04-11 07:04 | 61.77082 | -41.44325 | 33871 ft | 441 kts | 252° |
| 2026-04-11 07:04 | 61.75056 | -41.56538 | 33869 ft | 442 kts | 252° |
| 2026-04-11 07:05 | 61.73012 | -41.68778 | 33872 ft | 442 kts | 252° |
| 2026-04-11 07:05 | 61.70960 | -41.80986 | 33875 ft | 442 kts | 252° |
| 2026-04-11 07:06 | 61.68892 | -41.93211 | 33874 ft | 442 kts | 252° |
| 2026-04-11 07:06 | 61.66812 | -42.05430 | 33873 ft | 443 kts | 251° |
| 2026-04-11 07:07 | 61.64719 | -42.17636 | 33878 ft | 445 kts | 251° |
| 2026-04-11 07:07 | 61.62620 | -42.29805 | 33881 ft | 445 kts | 251° |
| 2026-04-11 07:08 | 61.60494 | -42.42042 | 33881 ft | 445 kts | 251° |
| 2026-04-11 07:08 | 61.58359 | -42.54259 | 33882 ft | 445 kts | 251° |
| 2026-04-11 07:09 | 61.56216 | -42.66435 | 33883 ft | 445 kts | 250° |
| 2026-04-11 07:09 | 61.54057 | -42.78631 | 33895 ft | 445 kts | 250° |
| 2026-04-11 07:10 | 61.50802 | -42.96868 | 33901 ft | 445 kts | 250° |
| 2026-04-11 07:10 | 61.48615 | -43.09019 | 33907 ft | 445 kts | 250° |
| 2026-04-11 07:11 | 61.46420 | -43.21143 | 33918 ft | 445 kts | 250° |
| 2026-04-11 07:11 | 61.44227 | -43.33176 | 33912 ft | 445 kts | 250° |
| 2026-04-11 07:12 | 61.42014 | -43.45247 | 33916 ft | 445 kts | 249° |
| 2026-04-11 07:12 | 61.39789 | -43.57306 | 33911 ft | 444 kts | 249° |
| 2026-04-11 07:13 | 61.37555 | -43.69340 | 33922 ft | 444 kts | 249° |
| 2026-04-11 07:13 | 61.35306 | -43.81382 | 33922 ft | 444 kts | 249° |
| 2026-04-11 07:14 | 61.33053 | -43.93371 | 33919 ft | 444 kts | 249° |
| 2026-04-11 07:14 | 61.30799 | -44.05291 | 33917 ft | 444 kts | 249° |
| 2026-04-11 07:15 | 61.28529 | -44.17227 | 33913 ft | 443 kts | 248° |
| 2026-04-11 07:15 | 61.26252 | -44.29118 | 33920 ft | 442 kts | 248° |
| 2026-04-11 07:16 | 61.23967 | -44.40986 | 33902 ft | 442 kts | 248° |
| 2026-04-11 07:16 | 61.21674 | -44.52823 | 33890 ft | 441 kts | 248° |
| 2026-04-11 07:17 | 61.19381 | -44.64591 | 33893 ft | 442 kts | 248° |
| 2026-04-11 07:17 | 61.17065 | -44.76411 | 33880 ft | 444 kts | 248° |
| 2026-04-11 07:18 | 61.14723 | -44.88288 | 33884 ft | 446 kts | 248° |
| 2026-04-11 07:18 | 61.12367 | -45.00167 | 33904 ft | 446 kts | 248° |
| 2026-04-11 07:19 | 61.10012 | -45.11969 | 33902 ft | 446 kts | 248° |
| 2026-04-11 07:19 | 61.07636 | -45.23808 | 33909 ft | 446 kts | 248° |
| 2026-04-11 07:20 | 61.05249 | -45.35630 | 33917 ft | 446 kts | 247° |
| 2026-04-11 07:20 | 61.02853 | -45.47433 | 33916 ft | 446 kts | 247° |
| 2026-04-11 07:21 | 61.00441 | -45.59244 | 33918 ft | 446 kts | 247° |
| 2026-04-11 07:21 | 60.98027 | -45.70997 | 33899 ft | 446 kts | 247° |
| 2026-04-11 07:22 | 60.95601 | -45.82739 | 33901 ft | 446 kts | 247° |
| 2026-04-11 07:22 | 60.93165 | -45.94465 | 33907 ft | 446 kts | 246° |
| 2026-04-11 07:23 | 60.90732 | -46.06109 | 33897 ft | 446 kts | 246° |
| 2026-04-11 07:23 | 60.88276 | -46.17794 | 33899 ft | 445 kts | 246° |
| 2026-04-11 07:24 | 60.85810 | -46.29462 | 33905 ft | 445 kts | 246° |
| 2026-04-11 07:24 | 60.83338 | -46.41094 | 33893 ft | 445 kts | 246° |
| 2026-04-11 07:25 | 60.80853 | -46.52718 | 33898 ft | 445 kts | 246° |
| 2026-04-11 07:25 | 60.78351 | -46.64364 | 33896 ft | 445 kts | 246° |
| 2026-04-11 07:26 | 60.75861 | -46.75885 | 33899 ft | 445 kts | 246° |
| 2026-04-11 07:26 | 60.73347 | -46.87452 | 33890 ft | 445 kts | 246° |
| 2026-04-11 07:27 | 60.70822 | -46.99009 | 33893 ft | 445 kts | 246° |
| 2026-04-11 07:27 | 60.68289 | -47.10538 | 33899 ft | 445 kts | 246° |
| 2026-04-11 07:28 | 60.65738 | -47.22083 | 33888 ft | 445 kts | 245° |
| 2026-04-11 07:28 | 60.63184 | -47.33580 | 33889 ft | 445 kts | 245° |
| 2026-04-11 07:29 | 60.60636 | -47.44990 | 33908 ft | 444 kts | 245° |
| 2026-04-11 07:29 | 60.58500 | -47.54503 | 33893 ft | 444 kts | 245° |
| 2026-04-11 07:30 | 60.55915 | -47.65963 | 33891 ft | 444 kts | 245° |
| 2026-04-11 07:30 | 60.53343 | -47.77309 | 33905 ft | 444 kts | 245° |
| 2026-04-11 07:31 | 60.50743 | -47.88710 | 33897 ft | 445 kts | 245° |
| 2026-04-11 07:31 | 60.48135 | -48.00089 | 33900 ft | 444 kts | 245° |
| 2026-04-11 07:32 | 60.45510 | -48.11481 | 33899 ft | 444 kts | 245° |
| 2026-04-11 07:32 | 60.42885 | -48.22809 | 33902 ft | 444 kts | 245° |
| 2026-04-11 07:33 | 60.40252 | -48.34117 | 33906 ft | 444 kts | 245° |
| 2026-04-11 07:33 | 60.37623 | -48.45348 | 33909 ft | 444 kts | 244° |
| 2026-04-11 07:34 | 60.34970 | -48.56622 | 33895 ft | 444 kts | 245° |
| 2026-04-11 07:34 | 60.32306 | -48.67881 | 33897 ft | 444 kts | 245° |
| 2026-04-11 07:35 | 60.29634 | -48.79120 | 33907 ft | 444 kts | 244° |
| 2026-04-11 07:35 | 60.26956 | -48.90323 | 33915 ft | 444 kts | 244° |
| 2026-04-11 07:36 | 60.24280 | -49.01461 | 33910 ft | 444 kts | 244° |
| 2026-04-11 07:36 | 60.21582 | -49.12635 | 33930 ft | 444 kts | 244° |
| 2026-04-11 07:37 | 60.18877 | -49.23776 | 33908 ft | 443 kts | 244° |
| 2026-04-11 07:37 | 60.16166 | -49.34891 | 33923 ft | 443 kts | 244° |
| 2026-04-11 07:38 | 60.13446 | -49.45982 | 33926 ft | 443 kts | 244° |
| 2026-04-11 07:38 | 60.10729 | -49.57010 | 33927 ft | 443 kts | 244° |
| 2026-04-11 07:39 | 60.07987 | -49.68081 | 33924 ft | 443 kts | 244° |
| 2026-04-11 07:39 | 60.05235 | -49.79135 | 33925 ft | 443 kts | 244° |
| 2026-04-11 07:40 | 60.02476 | -49.90163 | 33919 ft | 443 kts | 244° |
| 2026-04-11 07:40 | 59.99892 | -50.01348 | 33919 ft | 442 kts | 251° |
| 2026-04-11 07:41 | 59.97962 | -50.13004 | 33941 ft | 442 kts | 252° |
| 2026-04-11 07:41 | 59.96148 | -50.24724 | 33922 ft | 442 kts | 253° |
| 2026-04-11 07:42 | 59.94345 | -50.36406 | 33928 ft | 442 kts | 253° |
| 2026-04-11 07:43 | 59.91590 | -50.53953 | 33930 ft | 441 kts | 253° |
| 2026-04-11 07:43 | 59.89744 | -50.65570 | 33936 ft | 439 kts | 252° |
| 2026-04-11 07:44 | 59.87885 | -50.77180 | 33936 ft | 439 kts | 252° |
| 2026-04-11 07:44 | 59.86018 | -50.88772 | 33935 ft | 440 kts | 252° |
| 2026-04-11 07:45 | 59.84147 | -51.00316 | 33943 ft | 441 kts | 252° |
| 2026-04-11 07:45 | 59.82255 | -51.11909 | 33943 ft | 441 kts | 252° |
| 2026-04-11 07:46 | 59.80355 | -51.23477 | 33937 ft | 440 kts | 252° |
| 2026-04-11 07:46 | 59.78451 | -51.34994 | 33951 ft | 438 kts | 252° |
| 2026-04-11 07:47 | 59.76540 | -51.46484 | 33949 ft | 438 kts | 252° |
| 2026-04-11 07:47 | 59.74621 | -51.57942 | 33940 ft | 438 kts | 252° |
| 2026-04-11 07:48 | 59.72701 | -51.69337 | 33954 ft | 438 kts | 252° |
| 2026-04-11 07:48 | 59.70762 | -51.80774 | 33940 ft | 438 kts | 251° |
| 2026-04-11 07:49 | 59.68814 | -51.92194 | 33949 ft | 438 kts | 252° |
| 2026-04-11 07:49 | 59.66856 | -52.03599 | 33968 ft | 436 kts | 251° |
| 2026-04-11 07:50 | 59.64892 | -52.14967 | 33946 ft | 436 kts | 251° |
| 2026-04-11 07:50 | 59.62930 | -52.26255 | 33964 ft | 436 kts | 251° |
| 2026-04-11 07:51 | 59.60941 | -52.37626 | 33946 ft | 437 kts | 251° |
| 2026-04-11 07:51 | 59.58946 | -52.48962 | 33965 ft | 437 kts | 251° |
| 2026-04-11 07:52 | 59.56956 | -52.60204 | 33950 ft | 436 kts | 251° |
| 2026-04-11 07:52 | 59.54947 | -52.71487 | 33961 ft | 435 kts | 251° |
| 2026-04-11 07:53 | 59.52934 | -52.82720 | 33962 ft | 434 kts | 251° |
| 2026-04-11 07:53 | 59.50912 | -52.93936 | 33961 ft | 434 kts | 251° |
| 2026-04-11 07:54 | 59.48893 | -53.05072 | 33964 ft | 434 kts | 251° |
| 2026-04-11 07:54 | 59.46855 | -53.16247 | 33964 ft | 434 kts | 251° |
| 2026-04-11 07:55 | 59.44807 | -53.27412 | 33961 ft | 434 kts | 250° |
| 2026-04-11 07:55 | 59.42748 | -53.38574 | 33962 ft | 434 kts | 250° |
| 2026-04-11 07:56 | 59.40675 | -53.49740 | 33974 ft | 434 kts | 250° |
| 2026-04-11 07:56 | 59.38606 | -53.60820 | 33969 ft | 435 kts | 250° |
| 2026-04-11 07:57 | 59.36514 | -53.71963 | 33970 ft | 435 kts | 250° |
| 2026-04-11 07:57 | 59.34418 | -53.83062 | 33984 ft | 434 kts | 250° |
| 2026-04-11 07:58 | 59.32305 | -53.94186 | 33979 ft | 434 kts | 250° |
| 2026-04-11 07:58 | 59.30192 | -54.05244 | 33978 ft | 433 kts | 250° |
| 2026-04-11 07:59 | 59.28089 | -54.16190 | 33977 ft | 431 kts | 250° |
| 2026-04-11 07:59 | 59.25971 | -54.27156 | 33977 ft | 431 kts | 250° |
| 2026-04-11 08:00 | 59.23845 | -54.38104 | 34009 ft | 431 kts | 250° |
| 2026-04-11 08:00 | 59.21702 | -54.49072 | 33983 ft | 432 kts | 249° |
| 2026-04-11 08:01 | 59.19551 | -54.60024 | 33980 ft | 432 kts | 249° |
| 2026-04-11 08:01 | 59.17393 | -54.70947 | 33974 ft | 432 kts | 249° |
| 2026-04-11 08:02 | 59.15237 | -54.81802 | 33974 ft | 431 kts | 249° |
| 2026-04-11 08:02 | 59.13062 | -54.92696 | 33984 ft | 431 kts | 249° |
| 2026-04-11 08:03 | 59.10891 | -55.03508 | 33982 ft | 428 kts | 249° |
| 2026-04-11 08:03 | 59.08716 | -55.14281 | 33984 ft | 427 kts | 249° |
| 2026-04-11 08:04 | 59.06535 | -55.25029 | 33987 ft | 427 kts | 249° |
| 2026-04-11 08:04 | 59.04358 | -55.35698 | 33990 ft | 427 kts | 249° |
| 2026-04-11 08:05 | 59.02167 | -55.46380 | 33994 ft | 424 kts | 249° |
| 2026-04-11 08:05 | 58.99972 | -55.57021 | 33994 ft | 424 kts | 249° |
| 2026-04-11 08:06 | 58.97770 | -55.67649 | 33997 ft | 424 kts | 249° |
| 2026-04-11 08:06 | 58.95563 | -55.78237 | 33997 ft | 424 kts | 249° |
| 2026-04-11 08:07 | 58.93358 | -55.88765 | 33999 ft | 424 kts | 248° |
| 2026-04-11 08:07 | 58.91131 | -55.99343 | 34000 ft | 424 kts | 248° |
| 2026-04-11 08:08 | 58.87787 | -56.15127 | 33997 ft | 422 kts | 248° |
| 2026-04-11 08:08 | 58.85552 | -56.25608 | 33997 ft | 422 kts | 248° |
| 2026-04-11 08:09 | 58.83306 | -56.36086 | 33997 ft | 422 kts | 248° |
| 2026-04-11 08:09 | 58.81066 | -56.46484 | 33997 ft | 422 kts | 248° |
| 2026-04-11 08:10 | 58.78802 | -56.56940 | 33997 ft | 422 kts | 248° |
| 2026-04-11 08:10 | 58.76533 | -56.67371 | 33982 ft | 422 kts | 248° |
| 2026-04-11 08:11 | 58.74261 | -56.77757 | 34002 ft | 422 kts | 248° |
| 2026-04-11 08:11 | 58.71974 | -56.88163 | 34002 ft | 422 kts | 248° |
| 2026-04-11 08:12 | 58.69677 | -56.98566 | 34007 ft | 422 kts | 247° |
| 2026-04-11 08:12 | 58.67760 | -57.07202 | 34008 ft | 422 kts | 247° |
| 2026-04-11 08:13 | 58.65451 | -57.17564 | 34016 ft | 422 kts | 247° |
| 2026-04-11 08:13 | 58.62752 | -57.29607 | 34024 ft | 422 kts | 247° |
| 2026-04-11 08:14 | 58.60425 | -57.39938 | 34026 ft | 420 kts | 247° |
| 2026-04-11 08:14 | 58.58095 | -57.50232 | 34035 ft | 419 kts | 247° |
| 2026-04-11 08:15 | 58.55763 | -57.60483 | 34051 ft | 420 kts | 247° |
| 2026-04-11 08:15 | 58.53434 | -57.70670 | 34051 ft | 420 kts | 247° |
| 2026-04-11 08:16 | 58.51086 | -57.80896 | 34062 ft | 419 kts | 246° |
| 2026-04-11 08:16 | 58.48736 | -57.91077 | 34059 ft | 418 kts | 246° |
| 2026-04-11 08:17 | 58.46778 | -57.99528 | 34075 ft | 418 kts | 246° |
| 2026-04-11 08:17 | 58.44349 | -58.09643 | 34084 ft | 418 kts | 245° |
| 2026-04-11 08:18 | 58.41848 | -58.19599 | 34084 ft | 418 kts | 245° |
| 2026-04-11 08:18 | 58.39326 | -58.29614 | 34094 ft | 418 kts | 245° |
| 2026-04-11 08:19 | 58.36818 | -58.39603 | 34095 ft | 418 kts | 245° |
| 2026-04-11 08:19 | 58.34320 | -58.49540 | 34118 ft | 418 kts | 245° |
| 2026-04-11 08:20 | 58.31796 | -58.59536 | 34099 ft | 418 kts | 244° |
| 2026-04-11 08:20 | 58.29276 | -58.69472 | 34119 ft | 416 kts | 244° |
| 2026-04-11 08:21 | 58.26765 | -58.79324 | 34123 ft | 416 kts | 244° |
| 2026-04-11 08:21 | 58.24235 | -58.89208 | 34147 ft | 416 kts | 244° |
| 2026-04-11 08:22 | 58.21687 | -58.99117 | 34146 ft | 417 kts | 244° |
| 2026-04-11 08:22 | 58.19133 | -59.09002 | 34147 ft | 417 kts | 244° |
| 2026-04-11 08:23 | 58.16590 | -59.18808 | 34147 ft | 417 kts | 244° |
| 2026-04-11 08:23 | 58.14023 | -59.28657 | 34154 ft | 416 kts | 244° |
| 2026-04-11 08:24 | 58.11453 | -59.38478 | 34166 ft | 416 kts | 244° |
| 2026-04-11 08:24 | 58.08877 | -59.48279 | 34165 ft | 416 kts | 244° |
| 2026-04-11 08:25 | 58.06293 | -59.58065 | 34169 ft | 416 kts | 243° |
| 2026-04-11 08:25 | 58.03702 | -59.67835 | 34169 ft | 416 kts | 243° |
| 2026-04-11 08:26 | 58.01107 | -59.77580 | 34182 ft | 416 kts | 243° |
| 2026-04-11 08:26 | 57.98500 | -59.87330 | 34181 ft | 416 kts | 243° |
| 2026-04-11 08:27 | 57.95899 | -59.97013 | 34205 ft | 416 kts | 243° |
| 2026-04-11 08:27 | 57.93278 | -60.06726 | 34181 ft | 416 kts | 243° |
| 2026-04-11 08:28 | 57.90640 | -60.16465 | 34193 ft | 417 kts | 243° |
| 2026-04-11 08:28 | 57.88005 | -60.26150 | 34199 ft | 417 kts | 243° |
| 2026-04-11 08:29 | 57.85368 | -60.35799 | 34198 ft | 417 kts | 243° |
| 2026-04-11 08:29 | 57.82715 | -60.45469 | 34202 ft | 416 kts | 243° |
| 2026-04-11 08:30 | 57.80060 | -60.55102 | 34204 ft | 414 kts | 243° |
| 2026-04-11 08:30 | 57.77407 | -60.64688 | 34215 ft | 414 kts | 243° |
| 2026-04-11 08:31 | 57.74761 | -60.74211 | 34212 ft | 414 kts | 243° |
| 2026-04-11 08:31 | 57.72089 | -60.83788 | 34212 ft | 414 kts | 243° |
| 2026-04-11 08:32 | 57.69411 | -60.93341 | 34217 ft | 414 kts | 243° |
| 2026-04-11 08:32 | 57.66724 | -61.02891 | 34243 ft | 414 kts | 242° |
| 2026-04-11 08:33 | 57.64042 | -61.12384 | 34220 ft | 412 kts | 242° |
| 2026-04-11 08:33 | 57.61356 | -61.21851 | 34221 ft | 412 kts | 242° |
| 2026-04-11 08:34 | 57.58681 | -61.31241 | 34220 ft | 412 kts | 242° |
| 2026-04-11 08:34 | 57.55983 | -61.40672 | 34220 ft | 412 kts | 242° |
| 2026-04-11 08:35 | 57.53273 | -61.50107 | 34225 ft | 413 kts | 242° |
| 2026-04-11 08:35 | 57.50556 | -61.59529 | 34220 ft | 412 kts | 242° |
| 2026-04-11 08:36 | 57.47856 | -61.68851 | 34228 ft | 411 kts | 242° |
| 2026-04-11 08:36 | 57.45136 | -61.78208 | 34226 ft | 411 kts | 242° |
| 2026-04-11 08:37 | 57.42414 | -61.87533 | 34237 ft | 411 kts | 242° |
| 2026-04-11 08:37 | 57.39687 | -61.96837 | 34236 ft | 411 kts | 242° |
| 2026-04-11 08:38 | 57.36945 | -62.06154 | 34275 ft | 411 kts | 242° |
| 2026-04-11 08:38 | 57.34198 | -62.15456 | 34217 ft | 411 kts | 241° |
| 2026-04-11 08:39 | 57.31459 | -62.24688 | 34243 ft | 411 kts | 241° |
| 2026-04-11 08:39 | 57.28702 | -62.33945 | 34256 ft | 411 kts | 241° |
| 2026-04-11 08:40 | 57.25935 | -62.43202 | 34262 ft | 411 kts | 241° |
| 2026-04-11 08:40 | 57.23158 | -62.52454 | 34264 ft | 411 kts | 241° |
| 2026-04-11 08:41 | 57.20376 | -62.61685 | 34266 ft | 411 kts | 241° |
| 2026-04-11 08:41 | 57.17542 | -62.70766 | 34276 ft | 411 kts | 239° |
| 2026-04-11 08:42 | 57.14588 | -62.79803 | 34283 ft | 412 kts | 239° |
| 2026-04-11 08:43 | 57.10148 | -62.93384 | 34292 ft | 413 kts | 239° |
| 2026-04-11 08:43 | 57.07192 | -63.02452 | 34290 ft | 413 kts | 239° |
| 2026-04-11 08:44 | 57.04235 | -63.11504 | 34313 ft | 413 kts | 239° |
| 2026-04-11 08:44 | 57.01260 | -63.20576 | 34306 ft | 415 kts | 239° |
| 2026-04-11 08:45 | 56.98275 | -63.29644 | 34306 ft | 415 kts | 239° |
| 2026-04-11 08:45 | 56.95306 | -63.38625 | 34309 ft | 414 kts | 239° |
| 2026-04-11 08:46 | 56.92305 | -63.47669 | 34309 ft | 414 kts | 239° |
| 2026-04-11 08:46 | 56.89307 | -63.56671 | 34316 ft | 415 kts | 239° |
| 2026-04-11 08:47 | 56.86296 | -63.65678 | 34317 ft | 415 kts | 239° |
| 2026-04-11 08:47 | 56.83282 | -63.74659 | 34319 ft | 414 kts | 239° |
| 2026-04-11 08:48 | 56.80275 | -63.83586 | 34317 ft | 414 kts | 239° |
| 2026-04-11 08:48 | 56.77257 | -63.92510 | 34328 ft | 412 kts | 239° |
| 2026-04-11 08:49 | 56.74234 | -64.01420 | 34328 ft | 412 kts | 239° |
| 2026-04-11 08:49 | 56.71205 | -64.10312 | 34330 ft | 412 kts | 239° |
| 2026-04-11 08:50 | 56.68190 | -64.19131 | 34333 ft | 413 kts | 239° |
| 2026-04-11 08:50 | 56.65144 | -64.28009 | 34316 ft | 414 kts | 238° |
| 2026-04-11 08:51 | 56.62085 | -64.36892 | 34338 ft | 413 kts | 238° |
| 2026-04-11 08:51 | 56.59048 | -64.45677 | 34339 ft | 413 kts | 238° |
| 2026-04-11 08:52 | 56.54455 | -64.58905 | 34340 ft | 413 kts | 238° |
| 2026-04-11 08:52 | 56.51388 | -64.67698 | 34336 ft | 413 kts | 238° |
| 2026-04-11 08:53 | 56.48314 | -64.76477 | 34342 ft | 413 kts | 238° |
| 2026-04-11 08:53 | 56.45755 | -64.83763 | 34342 ft | 413 kts | 238° |
| 2026-04-11 08:54 | 56.42143 | -64.94006 | 34338 ft | 412 kts | 238° |
| 2026-04-11 08:54 | 56.39059 | -65.02722 | 34340 ft | 412 kts | 238° |
| 2026-04-11 08:55 | 56.35981 | -65.11388 | 34339 ft | 412 kts | 238° |
| 2026-04-11 08:55 | 56.32879 | -65.20090 | 34342 ft | 413 kts | 238° |
| 2026-04-11 08:56 | 56.29758 | -65.28812 | 34339 ft | 413 kts | 238° |
| 2026-04-11 08:56 | 56.26657 | -65.37451 | 34339 ft | 413 kts | 238° |
| 2026-04-11 08:57 | 56.23518 | -65.46162 | 34337 ft | 413 kts | 238° |
| 2026-04-11 08:57 | 56.20402 | -65.54777 | 34336 ft | 413 kts | 238° |
| 2026-04-11 08:58 | 56.17266 | -65.63420 | 34336 ft | 413 kts | 238° |
| 2026-04-11 08:58 | 56.14122 | -65.72052 | 34333 ft | 413 kts | 238° |
| 2026-04-11 08:59 | 56.10992 | -65.80616 | 34333 ft | 413 kts | 238° |
| 2026-04-11 08:59 | 56.07833 | -65.89227 | 34331 ft | 413 kts | 237° |
| 2026-04-11 09:00 | 56.04671 | -65.97820 | 34337 ft | 413 kts | 237° |
| 2026-04-11 09:00 | 56.01503 | -66.06396 | 34336 ft | 412 kts | 237° |
| 2026-04-11 09:01 | 55.98355 | -66.14887 | 34334 ft | 412 kts | 237° |
| 2026-04-11 09:01 | 55.95180 | -66.23424 | 34333 ft | 413 kts | 237° |
| 2026-04-11 09:02 | 55.91993 | -66.31962 | 34336 ft | 413 kts | 237° |
| 2026-04-11 09:02 | 55.88804 | -66.40475 | 34336 ft | 412 kts | 237° |
| 2026-04-11 09:03 | 55.85615 | -66.48960 | 34338 ft | 412 kts | 237° |
| 2026-04-11 09:03 | 55.82439 | -66.57380 | 34335 ft | 412 kts | 237° |
| 2026-04-11 09:04 | 55.79233 | -66.65849 | 34335 ft | 412 kts | 237° |
| 2026-04-11 09:04 | 55.76561 | -66.72888 | 34336 ft | 412 kts | 237° |
| 2026-04-11 09:05 | 55.73354 | -66.81308 | 34339 ft | 412 kts | 237° |
| 2026-04-11 09:05 | 55.70131 | -66.89739 | 34331 ft | 412 kts | 237° |
| 2026-04-11 09:06 | 55.66905 | -66.98150 | 34334 ft | 412 kts | 237° |
| 2026-04-11 09:06 | 55.63681 | -67.06528 | 34344 ft | 413 kts | 237° |
| 2026-04-11 09:07 | 55.60447 | -67.14905 | 34342 ft | 414 kts | 237° |
| 2026-04-11 09:07 | 55.57193 | -67.23303 | 34343 ft | 414 kts | 236° |
| 2026-04-11 09:08 | 55.53932 | -67.31691 | 34342 ft | 414 kts | 236° |
| 2026-04-11 09:08 | 55.50659 | -67.40080 | 34342 ft | 414 kts | 236° |
| 2026-04-11 09:09 | 55.47383 | -67.48448 | 34342 ft | 414 kts | 236° |
| 2026-04-11 09:09 | 55.44109 | -67.56781 | 34342 ft | 414 kts | 236° |
| 2026-04-11 09:10 | 55.40827 | -67.65110 | 34345 ft | 414 kts | 236° |
| 2026-04-11 09:10 | 55.37552 | -67.73390 | 34345 ft | 414 kts | 236° |
| 2026-04-11 09:11 | 55.34259 | -67.81690 | 34335 ft | 414 kts | 236° |
| 2026-04-11 09:11 | 55.30957 | -67.89984 | 34351 ft | 414 kts | 236° |
| 2026-04-11 09:12 | 55.27650 | -67.98262 | 34359 ft | 414 kts | 236° |
| 2026-04-11 09:12 | 55.24332 | -68.06541 | 34348 ft | 415 kts | 236° |
| 2026-04-11 09:13 | 55.21021 | -68.14773 | 34350 ft | 415 kts | 236° |
| 2026-04-11 09:13 | 55.17684 | -68.23041 | 34346 ft | 415 kts | 236° |
| 2026-04-11 09:14 | 55.14345 | -68.31289 | 34343 ft | 415 kts | 236° |
| 2026-04-11 09:14 | 55.11004 | -68.39513 | 34345 ft | 415 kts | 236° |
| 2026-04-11 09:15 | 55.07660 | -68.47718 | 34345 ft | 415 kts | 235° |
| 2026-04-11 09:15 | 55.04328 | -68.55867 | 34339 ft | 415 kts | 235° |
| 2026-04-11 09:16 | 55.00967 | -68.64059 | 34339 ft | 415 kts | 235° |
| 2026-04-11 09:16 | 54.97595 | -68.72252 | 34338 ft | 415 kts | 235° |
| 2026-04-11 09:17 | 54.94231 | -68.80396 | 34344 ft | 415 kts | 235° |
| 2026-04-11 09:17 | 54.90863 | -68.88524 | 34341 ft | 415 kts | 235° |
| 2026-04-11 09:18 | 54.87472 | -68.96683 | 34330 ft | 416 kts | 235° |
| 2026-04-11 09:18 | 54.84101 | -69.04763 | 34331 ft | 416 kts | 235° |
| 2026-04-11 09:19 | 54.80698 | -69.12896 | 34329 ft | 416 kts | 235° |
| 2026-04-11 09:19 | 54.77294 | -69.21004 | 34306 ft | 416 kts | 235° |
| 2026-04-11 09:20 | 54.73886 | -69.29096 | 34324 ft | 416 kts | 234° |
| 2026-04-11 09:20 | 54.70468 | -69.37183 | 34322 ft | 416 kts | 234° |
| 2026-04-11 09:21 | 54.67045 | -69.45256 | 34322 ft | 416 kts | 234° |
| 2026-04-11 09:21 | 54.63615 | -69.53320 | 34314 ft | 416 kts | 234° |
| 2026-04-11 09:22 | 54.60204 | -69.61315 | 34314 ft | 416 kts | 234° |
| 2026-04-11 09:22 | 54.56768 | -69.69341 | 34313 ft | 416 kts | 234° |
| 2026-04-11 09:23 | 54.53315 | -69.77381 | 34312 ft | 417 kts | 234° |
| 2026-04-11 09:23 | 54.49859 | -69.85400 | 34311 ft | 417 kts | 234° |
| 2026-04-11 09:24 | 54.46389 | -69.93428 | 34309 ft | 417 kts | 234° |
| 2026-04-11 09:24 | 54.42918 | -70.01431 | 34306 ft | 417 kts | 234° |
| 2026-04-11 09:25 | 54.39436 | -70.09437 | 34309 ft | 417 kts | 234° |
| 2026-04-11 09:25 | 54.35976 | -70.17364 | 34311 ft | 418 kts | 234° |
| 2026-04-11 09:26 | 54.32486 | -70.25334 | 34309 ft | 417 kts | 234° |
| 2026-04-11 09:26 | 54.28990 | -70.33292 | 34308 ft | 417 kts | 234° |
| 2026-04-11 09:27 | 54.25508 | -70.41195 | 34307 ft | 418 kts | 234° |
| 2026-04-11 09:27 | 54.22009 | -70.49109 | 34306 ft | 418 kts | 234° |
| 2026-04-11 09:28 | 54.18494 | -70.57035 | 34304 ft | 418 kts | 234° |
| 2026-04-11 09:28 | 54.14973 | -70.64952 | 34302 ft | 419 kts | 234° |
| 2026-04-11 09:29 | 54.11441 | -70.72866 | 34302 ft | 419 kts | 233° |
| 2026-04-11 09:29 | 54.07928 | -70.80709 | 34301 ft | 419 kts | 233° |
| 2026-04-11 09:30 | 54.04381 | -70.88608 | 34297 ft | 419 kts | 233° |
| 2026-04-11 09:30 | 54.00837 | -70.96474 | 34297 ft | 419 kts | 233° |
| 2026-04-11 09:31 | 53.97282 | -71.04340 | 34300 ft | 419 kts | 233° |
| 2026-04-11 09:31 | 53.93717 | -71.12202 | 34296 ft | 420 kts | 233° |
| 2026-04-11 09:32 | 53.90167 | -71.20008 | 34296 ft | 420 kts | 233° |
| 2026-04-11 09:32 | 53.86597 | -71.27833 | 34294 ft | 420 kts | 233° |
| 2026-04-11 09:33 | 53.83014 | -71.35662 | 34297 ft | 420 kts | 233° |
| 2026-04-11 09:33 | 53.79435 | -71.43456 | 34299 ft | 420 kts | 233° |
| 2026-04-11 09:34 | 53.75843 | -71.51256 | 34287 ft | 421 kts | 233° |
| 2026-04-11 09:34 | 53.72261 | -71.59010 | 34297 ft | 421 kts | 233° |
| 2026-04-11 09:35 | 53.68657 | -71.66787 | 34291 ft | 421 kts | 233° |
| 2026-04-11 09:35 | 53.65038 | -71.74571 | 34294 ft | 421 kts | 233° |
| 2026-04-11 09:36 | 53.61427 | -71.82315 | 34269 ft | 421 kts | 233° |
| 2026-04-11 09:36 | 53.57818 | -71.90031 | 34298 ft | 421 kts | 233° |
| 2026-04-11 09:37 | 53.54181 | -71.97782 | 34295 ft | 421 kts | 233° |
| 2026-04-11 09:37 | 53.50542 | -72.05513 | 34296 ft | 421 kts | 233° |
| 2026-04-11 09:38 | 53.46897 | -72.13234 | 34299 ft | 421 kts | 233° |
| 2026-04-11 09:38 | 53.43247 | -72.20943 | 34315 ft | 421 kts | 233° |
| 2026-04-11 09:39 | 53.39595 | -72.28631 | 34295 ft | 422 kts | 233° |
| 2026-04-11 09:39 | 53.35945 | -72.36292 | 34299 ft | 423 kts | 233° |
| 2026-04-11 09:40 | 53.32273 | -72.43975 | 34296 ft | 423 kts | 232° |
| 2026-04-11 09:40 | 53.28592 | -72.51653 | 34297 ft | 423 kts | 232° |
| 2026-04-11 09:41 | 53.24901 | -72.59327 | 34294 ft | 423 kts | 232° |
| 2026-04-11 09:41 | 53.21215 | -72.66970 | 34307 ft | 423 kts | 232° |
| 2026-04-11 09:42 | 53.17538 | -72.74569 | 34281 ft | 423 kts | 232° |
| 2026-04-11 09:43 | 53.11984 | -72.86005 | 34290 ft | 423 kts | 232° |
| 2026-04-11 09:43 | 53.08266 | -72.93633 | 34286 ft | 423 kts | 232° |
| 2026-04-11 09:44 | 53.04551 | -73.01230 | 34295 ft | 423 kts | 232° |
| 2026-04-11 09:44 | 53.00824 | -73.08829 | 34293 ft | 424 kts | 232° |
| 2026-04-11 09:45 | 52.97107 | -73.16385 | 34290 ft | 424 kts | 232° |
| 2026-04-11 09:45 | 52.93372 | -73.23953 | 34291 ft | 424 kts | 232° |
| 2026-04-11 09:46 | 52.89620 | -73.31534 | 34292 ft | 424 kts | 232° |
| 2026-04-11 09:46 | 52.85891 | -73.39046 | 34286 ft | 424 kts | 232° |
| 2026-04-11 09:47 | 52.82144 | -73.46572 | 34281 ft | 424 kts | 232° |
| 2026-04-11 09:47 | 52.78383 | -73.54104 | 34288 ft | 425 kts | 232° |
| 2026-04-11 09:48 | 52.74616 | -73.61624 | 34288 ft | 425 kts | 232° |
| 2026-04-11 09:48 | 52.70842 | -73.69137 | 34282 ft | 425 kts | 232° |
| 2026-04-11 09:49 | 52.67063 | -73.76636 | 34304 ft | 425 kts | 232° |
| 2026-04-11 09:49 | 52.63302 | -73.84078 | 34274 ft | 425 kts | 232° |
| 2026-04-11 09:50 | 52.59507 | -73.91563 | 34281 ft | 426 kts | 232° |
| 2026-04-11 09:50 | 52.56352 | -73.97772 | 34282 ft | 426 kts | 232° |
| 2026-04-11 09:51 | 52.52549 | -74.05233 | 34287 ft | 426 kts | 232° |
| 2026-04-11 09:51 | 52.48739 | -74.12687 | 34288 ft | 426 kts | 232° |
| 2026-04-11 09:52 | 52.44921 | -74.20133 | 34279 ft | 426 kts | 232° |
| 2026-04-11 09:52 | 52.41097 | -74.27569 | 34284 ft | 426 kts | 232° |
| 2026-04-11 09:53 | 52.37302 | -74.34929 | 34283 ft | 426 kts | 232° |
| 2026-04-11 09:53 | 52.33475 | -74.42327 | 34284 ft | 426 kts | 232° |
| 2026-04-11 09:54 | 52.29639 | -74.49721 | 34287 ft | 426 kts | 232° |
| 2026-04-11 09:54 | 52.25806 | -74.57088 | 34285 ft | 426 kts | 232° |
| 2026-04-11 09:55 | 52.21961 | -74.64458 | 34280 ft | 426 kts | 232° |
| 2026-04-11 09:55 | 52.18116 | -74.71806 | 34282 ft | 426 kts | 232° |
| 2026-04-11 09:56 | 52.14286 | -74.79102 | 34284 ft | 426 kts | 231° |
| 2026-04-11 09:56 | 52.10418 | -74.86451 | 34285 ft | 426 kts | 231° |
| 2026-04-11 09:57 | 52.06549 | -74.93780 | 34286 ft | 426 kts | 231° |
| 2026-04-11 09:57 | 52.02701 | -75.01047 | 34278 ft | 427 kts | 231° |
| 2026-04-11 09:58 | 51.98820 | -75.08356 | 34281 ft | 427 kts | 231° |
| 2026-04-11 09:58 | 51.94931 | -75.15658 | 34281 ft | 427 kts | 231° |
| 2026-04-11 09:59 | 51.91067 | -75.22893 | 34287 ft | 427 kts | 232° |
| 2026-04-11 09:59 | 51.87159 | -75.30191 | 34285 ft | 428 kts | 231° |
| 2026-04-11 10:00 | 51.83254 | -75.37461 | 34276 ft | 428 kts | 232° |
| 2026-04-11 10:00 | 51.79339 | -75.44729 | 34283 ft | 428 kts | 232° |
| 2026-04-11 10:01 | 51.75443 | -75.51940 | 34285 ft | 428 kts | 231° |
| 2026-04-11 10:01 | 51.71518 | -75.59184 | 34302 ft | 429 kts | 231° |
| 2026-04-11 10:02 | 51.67590 | -75.66414 | 34283 ft | 429 kts | 231° |
| 2026-04-11 10:02 | 51.63645 | -75.73653 | 34291 ft | 429 kts | 231° |
| 2026-04-11 10:03 | 51.59705 | -75.80863 | 34294 ft | 429 kts | 231° |
| 2026-04-11 10:03 | 51.55778 | -75.88027 | 34293 ft | 429 kts | 231° |
| 2026-04-11 10:04 | 51.51821 | -75.95223 | 34297 ft | 429 kts | 232° |
| 2026-04-11 10:04 | 51.47859 | -76.02420 | 34296 ft | 430 kts | 232° |
| 2026-04-11 10:05 | 51.43921 | -76.09664 | 34283 ft | 430 kts | 232° |
| 2026-04-11 10:05 | 51.39992 | -76.16910 | 34298 ft | 431 kts | 232° |
| 2026-04-11 10:06 | 51.36063 | -76.24116 | 34297 ft | 431 kts | 232° |
| 2026-04-11 10:06 | 51.32108 | -76.31339 | 34297 ft | 431 kts | 232° |
| 2026-04-11 10:07 | 51.28146 | -76.38550 | 34297 ft | 431 kts | 232° |
| 2026-04-11 10:07 | 51.24210 | -76.45693 | 34291 ft | 431 kts | 232° |
| 2026-04-11 10:08 | 51.20241 | -76.52878 | 34301 ft | 432 kts | 232° |
| 2026-04-11 10:08 | 51.16261 | -76.60062 | 34301 ft | 432 kts | 232° |
| 2026-04-11 10:09 | 51.12273 | -76.67238 | 34301 ft | 433 kts | 232° |
| 2026-04-11 10:09 | 51.08280 | -76.74406 | 34300 ft | 433 kts | 232° |
| 2026-04-11 10:10 | 51.04294 | -76.81542 | 34295 ft | 433 kts | 232° |
| 2026-04-11 10:10 | 51.00282 | -76.88702 | 34301 ft | 434 kts | 232° |
| 2026-04-11 10:11 | 50.96255 | -76.95870 | 34301 ft | 434 kts | 232° |
| 2026-04-11 10:11 | 50.92233 | -77.03008 | 34301 ft | 434 kts | 232° |
| 2026-04-11 10:12 | 50.88199 | -77.10146 | 34301 ft | 434 kts | 232° |
| 2026-04-11 10:12 | 50.84189 | -77.17223 | 34302 ft | 435 kts | 232° |
| 2026-04-11 10:13 | 50.80136 | -77.24357 | 34303 ft | 435 kts | 232° |
| 2026-04-11 10:13 | 50.76080 | -77.31473 | 34304 ft | 436 kts | 232° |
| 2026-04-11 10:14 | 50.72006 | -77.38604 | 34306 ft | 437 kts | 232° |
| 2026-04-11 10:14 | 50.67955 | -77.45673 | 34306 ft | 437 kts | 232° |
| 2026-04-11 10:15 | 50.63870 | -77.52782 | 34303 ft | 438 kts | 232° |
| 2026-04-11 10:15 | 50.59772 | -77.59896 | 34306 ft | 438 kts | 232° |
| 2026-04-11 10:16 | 50.55671 | -77.66992 | 34309 ft | 438 kts | 232° |
| 2026-04-11 10:16 | 50.51568 | -77.74073 | 34307 ft | 438 kts | 232° |
| 2026-04-11 10:17 | 50.47478 | -77.81110 | 34306 ft | 438 kts | 232° |
| 2026-04-11 10:17 | 50.43355 | -77.88186 | 34307 ft | 438 kts | 232° |
| 2026-04-11 10:18 | 50.39227 | -77.95247 | 34306 ft | 439 kts | 232° |
| 2026-04-11 10:18 | 50.35113 | -78.02271 | 34307 ft | 440 kts | 232° |
| 2026-04-11 10:19 | 50.30971 | -78.09322 | 34307 ft | 440 kts | 232° |
| 2026-04-11 10:19 | 50.26817 | -78.16371 | 34278 ft | 440 kts | 232° |
| 2026-04-11 10:20 | 50.22658 | -78.23412 | 34306 ft | 440 kts | 232° |
| 2026-04-11 10:20 | 50.18504 | -78.30423 | 34307 ft | 440 kts | 232° |
| 2026-04-11 10:21 | 50.14332 | -78.37446 | 34309 ft | 440 kts | 232° |
| 2026-04-11 10:21 | 50.10164 | -78.44441 | 34309 ft | 441 kts | 232° |
| 2026-04-11 10:22 | 50.06015 | -78.51387 | 34313 ft | 441 kts | 232° |
| 2026-04-11 10:22 | 50.01827 | -78.58375 | 34309 ft | 442 kts | 233° |
| 2026-04-11 10:23 | 49.97630 | -78.65366 | 34310 ft | 442 kts | 233° |
| 2026-04-11 10:23 | 49.93446 | -78.72313 | 34314 ft | 442 kts | 233° |
| 2026-04-11 10:24 | 49.89240 | -78.79277 | 34317 ft | 442 kts | 233° |
| 2026-04-11 10:24 | 49.85018 | -78.86249 | 34311 ft | 442 kts | 233° |
| 2026-04-11 10:25 | 49.80816 | -78.93168 | 34318 ft | 442 kts | 233° |
| 2026-04-11 10:25 | 49.76593 | -79.00102 | 34320 ft | 442 kts | 233° |
| 2026-04-11 10:26 | 49.72403 | -79.06966 | 34318 ft | 442 kts | 233° |
| 2026-04-11 10:26 | 49.68176 | -79.13869 | 34274 ft | 442 kts | 234° |
| 2026-04-11 10:27 | 49.63941 | -79.20767 | 34329 ft | 442 kts | 234° |
| 2026-04-11 10:27 | 49.59717 | -79.27631 | 34328 ft | 442 kts | 234° |
| 2026-04-11 10:28 | 49.55477 | -79.34501 | 34310 ft | 442 kts | 233° |
| 2026-04-11 10:28 | 49.51236 | -79.41355 | 34328 ft | 442 kts | 233° |
| 2026-04-11 10:29 | 49.47016 | -79.48154 | 34310 ft | 442 kts | 234° |
| 2026-04-11 10:29 | 49.42768 | -79.54981 | 34324 ft | 442 kts | 234° |
| 2026-04-11 10:30 | 49.38517 | -79.61796 | 34327 ft | 442 kts | 234° |
| 2026-04-11 10:30 | 49.34981 | -79.67450 | 34328 ft | 442 kts | 234° |
| 2026-04-11 10:31 | 49.30001 | -79.75392 | 34332 ft | 442 kts | 234° |
| 2026-04-11 10:31 | 49.25738 | -79.82174 | 34331 ft | 442 kts | 234° |
| 2026-04-11 10:32 | 49.21495 | -79.88901 | 34333 ft | 442 kts | 234° |
| 2026-04-11 10:32 | 49.17227 | -79.95652 | 34336 ft | 442 kts | 234° |
| 2026-04-11 10:33 | 49.12945 | -80.02406 | 34337 ft | 442 kts | 234° |
| 2026-04-11 10:33 | 49.08673 | -80.09128 | 34311 ft | 441 kts | 234° |
| 2026-04-11 10:34 | 49.04388 | -80.15851 | 34338 ft | 441 kts | 234° |
| 2026-04-11 10:34 | 49.00110 | -80.22547 | 34346 ft | 441 kts | 234° |
| 2026-04-11 10:35 | 48.95820 | -80.29245 | 34341 ft | 441 kts | 234° |
| 2026-04-11 10:35 | 48.91553 | -80.35887 | 34337 ft | 440 kts | 235° |
| 2026-04-11 10:36 | 48.87990 | -80.41420 | 34342 ft | 440 kts | 236° |
| 2026-04-11 10:36 | 48.82990 | -80.49167 | 34350 ft | 439 kts | 236° |
| 2026-04-11 10:37 | 48.78706 | -80.55787 | 34354 ft | 439 kts | 235° |
| 2026-04-11 10:37 | 48.75155 | -80.61262 | 34359 ft | 439 kts | 235° |
| 2026-04-11 10:38 | 48.70162 | -80.68939 | 34342 ft | 439 kts | 235° |
| 2026-04-11 10:38 | 48.64428 | -80.77720 | 34357 ft | 438 kts | 235° |
| 2026-04-11 10:39 | 48.60165 | -80.84234 | 34357 ft | 438 kts | 235° |
| 2026-04-11 10:39 | 48.55871 | -80.90779 | 34354 ft | 439 kts | 235° |
| 2026-04-11 10:40 | 48.51568 | -80.97319 | 34348 ft | 438 kts | 235° |
| 2026-04-11 10:40 | 48.47261 | -81.03849 | 34369 ft | 438 kts | 235° |
| 2026-04-11 10:41 | 48.42996 | -81.10384 | 34369 ft | 436 kts | 237° |
| 2026-04-11 10:41 | 48.38983 | -81.17175 | 34374 ft | 433 kts | 239° |
| 2026-04-11 10:42 | 48.35020 | -81.24027 | 34371 ft | 434 kts | 238° |
| 2026-04-11 10:42 | 48.31021 | -81.30825 | 34359 ft | 434 kts | 238° |
| 2026-04-11 10:43 | 48.25018 | -81.40880 | 34324 ft | 432 kts | 239° |
| 2026-04-11 10:44 | 48.20988 | -81.47588 | 34385 ft | 430 kts | 240° |
| 2026-04-11 10:44 | 48.16991 | -81.54240 | 34385 ft | 429 kts | 240° |
| 2026-04-11 10:45 | 48.13016 | -81.60848 | 34349 ft | 429 kts | 241° |
| 2026-04-11 10:45 | 48.09014 | -81.67482 | 34394 ft | 429 kts | 241° |
| 2026-04-11 10:46 | 48.05015 | -81.74090 | 34396 ft | 429 kts | 241° |
| 2026-04-11 10:46 | 48.01008 | -81.80694 | 34397 ft | 429 kts | 240° |
| 2026-04-11 10:47 | 47.97020 | -81.87252 | 34401 ft | 429 kts | 240° |
| 2026-04-11 10:47 | 47.93003 | -81.93837 | 34358 ft | 428 kts | 241° |
| 2026-04-11 10:48 | 47.88987 | -82.00404 | 34404 ft | 427 kts | 241° |
| 2026-04-11 10:48 | 47.84987 | -82.06930 | 34411 ft | 426 kts | 241° |
| 2026-04-11 10:49 | 47.80982 | -82.13452 | 34409 ft | 427 kts | 241° |
| 2026-04-11 10:49 | 47.77002 | -82.19917 | 34413 ft | 427 kts | 240° |
| 2026-04-11 10:50 | 47.72989 | -82.26417 | 34413 ft | 427 kts | 240° |
| 2026-04-11 10:50 | 47.68972 | -82.32906 | 34420 ft | 426 kts | 240° |
| 2026-04-11 10:51 | 47.64961 | -82.39373 | 34416 ft | 426 kts | 240° |
| 2026-04-11 10:51 | 47.60939 | -82.45842 | 34403 ft | 426 kts | 240° |
| 2026-04-11 10:52 | 47.56949 | -82.52243 | 34421 ft | 425 kts | 240° |
| 2026-04-11 10:52 | 47.52909 | -82.58707 | 34425 ft | 425 kts | 240° |
| 2026-04-11 10:53 | 47.48908 | -82.65095 | 34425 ft | 425 kts | 240° |
| 2026-04-11 10:53 | 47.44877 | -82.71513 | 34431 ft | 425 kts | 240° |
| 2026-04-11 10:54 | 47.40853 | -82.77905 | 34429 ft | 425 kts | 240° |
| 2026-04-11 10:54 | 47.36835 | -82.84272 | 34403 ft | 425 kts | 240° |
| 2026-04-11 10:55 | 47.32778 | -82.90689 | 34439 ft | 426 kts | 239° |
| 2026-04-11 10:55 | 47.28746 | -82.97049 | 34438 ft | 426 kts | 239° |
| 2026-04-11 10:56 | 47.24690 | -83.03432 | 34447 ft | 427 kts | 239° |
| 2026-04-11 10:56 | 47.20626 | -83.09811 | 34444 ft | 427 kts | 239° |
| 2026-04-11 10:57 | 47.16553 | -83.16190 | 34425 ft | 427 kts | 239° |
| 2026-04-11 10:57 | 47.12469 | -83.22573 | 34449 ft | 429 kts | 239° |
| 2026-04-11 10:58 | 47.08375 | -83.28952 | 34448 ft | 429 kts | 239° |
| 2026-04-11 10:58 | 47.04305 | -83.35275 | 34448 ft | 429 kts | 239° |
| 2026-04-11 10:59 | 47.00194 | -83.41650 | 34447 ft | 429 kts | 239° |
| 2026-04-11 10:59 | 46.96082 | -83.48012 | 34446 ft | 430 kts | 238° |
| 2026-04-11 11:00 | 46.91961 | -83.54372 | 34443 ft | 431 kts | 238° |
| 2026-04-11 11:00 | 46.87824 | -83.60742 | 34450 ft | 431 kts | 238° |
| 2026-04-11 11:01 | 46.83695 | -83.67084 | 34446 ft | 431 kts | 238° |
| 2026-04-11 11:01 | 46.79586 | -83.73380 | 34390 ft | 430 kts | 238° |
| 2026-04-11 11:02 | 46.75448 | -83.79708 | 34445 ft | 431 kts | 238° |
| 2026-04-11 11:02 | 46.71295 | -83.86040 | 34440 ft | 431 kts | 238° |
| 2026-04-11 11:03 | 46.67153 | -83.92341 | 34423 ft | 431 kts | 237° |
| 2026-04-11 11:03 | 46.63010 | -83.98628 | 34444 ft | 430 kts | 237° |
| 2026-04-11 11:04 | 46.58883 | -84.04885 | 34443 ft | 430 kts | 237° |
| 2026-04-11 11:04 | 46.54733 | -84.11156 | 34441 ft | 430 kts | 237° |
| 2026-04-11 11:05 | 46.50577 | -84.17418 | 34439 ft | 430 kts | 237° |
| 2026-04-11 11:05 | 46.46414 | -84.23677 | 34442 ft | 430 kts | 237° |
| 2026-04-11 11:06 | 46.42310 | -84.29893 | 34412 ft | 426 kts | 239° |
| 2026-04-11 11:06 | 46.38857 | -84.36716 | 34450 ft | 416 kts | 246° |
| 2026-04-11 11:07 | 46.35692 | -84.43707 | 34465 ft | 414 kts | 247° |
| 2026-04-11 11:07 | 46.32571 | -84.50720 | 34449 ft | 414 kts | 247° |
| 2026-04-11 11:08 | 46.29439 | -84.57720 | 34449 ft | 414 kts | 247° |
| 2026-04-11 11:08 | 46.26288 | -84.64712 | 34451 ft | 415 kts | 246° |
| 2026-04-11 11:09 | 46.23151 | -84.71648 | 34457 ft | 415 kts | 246° |
| 2026-04-11 11:09 | 46.19989 | -84.78619 | 34454 ft | 415 kts | 246° |
| 2026-04-11 11:10 | 46.16816 | -84.85597 | 34455 ft | 415 kts | 246° |
| 2026-04-11 11:10 | 46.13639 | -84.92567 | 34459 ft | 415 kts | 246° |
| 2026-04-11 11:11 | 46.10476 | -84.99492 | 34458 ft | 415 kts | 246° |
| 2026-04-11 11:11 | 46.07296 | -85.06434 | 34454 ft | 415 kts | 246° |
| 2026-04-11 11:12 | 46.04103 | -85.13390 | 34449 ft | 416 kts | 245° |
| 2026-04-11 11:12 | 46.00904 | -85.20341 | 34452 ft | 416 kts | 245° |
| 2026-04-11 11:13 | 45.97697 | -85.27291 | 34447 ft | 416 kts | 245° |
| 2026-04-11 11:13 | 45.94506 | -85.34190 | 34450 ft | 417 kts | 245° |
| 2026-04-11 11:14 | 45.91287 | -85.41130 | 34451 ft | 417 kts | 245° |
| 2026-04-11 11:14 | 45.88070 | -85.48051 | 34394 ft | 417 kts | 245° |
| 2026-04-11 11:15 | 45.84844 | -85.54976 | 34442 ft | 418 kts | 245° |
| 2026-04-11 11:15 | 45.81608 | -85.61904 | 34444 ft | 418 kts | 245° |
| 2026-04-11 11:16 | 45.78368 | -85.68822 | 34442 ft | 418 kts | 245° |
| 2026-04-11 11:16 | 45.75143 | -85.75692 | 34444 ft | 418 kts | 245° |
| 2026-04-11 11:17 | 45.71885 | -85.82615 | 34442 ft | 418 kts | 245° |
| 2026-04-11 11:17 | 45.68634 | -85.89507 | 34442 ft | 418 kts | 244° |
| 2026-04-11 11:18 | 45.65377 | -85.96397 | 34443 ft | 418 kts | 244° |
| 2026-04-11 11:18 | 45.62112 | -86.03283 | 34448 ft | 418 kts | 244° |
| 2026-04-11 11:19 | 45.58857 | -86.10134 | 34424 ft | 418 kts | 244° |
| 2026-04-11 11:19 | 45.55584 | -86.17006 | 34445 ft | 418 kts | 244° |
| 2026-04-11 11:20 | 45.52301 | -86.23882 | 34447 ft | 418 kts | 244° |
| 2026-04-11 11:20 | 45.49018 | -86.30742 | 34444 ft | 419 kts | 244° |
| 2026-04-11 11:21 | 45.45730 | -86.37594 | 34448 ft | 419 kts | 244° |
| 2026-04-11 11:21 | 45.42455 | -86.44402 | 34445 ft | 419 kts | 244° |
| 2026-04-11 11:22 | 45.39154 | -86.51250 | 34450 ft | 419 kts | 244° |
| 2026-04-11 11:22 | 45.35853 | -86.58079 | 34452 ft | 419 kts | 244° |
| 2026-04-11 11:23 | 45.32550 | -86.64899 | 34450 ft | 419 kts | 244° |
| 2026-04-11 11:23 | 45.29254 | -86.71687 | 34453 ft | 419 kts | 244° |
| 2026-04-11 11:24 | 45.25925 | -86.78527 | 34447 ft | 419 kts | 244° |
| 2026-04-11 11:24 | 45.23165 | -86.84184 | 34447 ft | 419 kts | 244° |
| 2026-04-11 11:25 | 45.19300 | -86.92088 | 34450 ft | 419 kts | 244° |
| 2026-04-11 11:25 | 45.16531 | -86.97738 | 34444 ft | 419 kts | 244° |
| 2026-04-11 11:26 | 45.13195 | -87.04529 | 34448 ft | 419 kts | 244° |
| 2026-04-11 11:26 | 45.09858 | -87.11306 | 34444 ft | 419 kts | 244° |
| 2026-04-11 11:27 | 45.06534 | -87.18042 | 34442 ft | 419 kts | 244° |
| 2026-04-11 11:27 | 45.03188 | -87.24805 | 34439 ft | 419 kts | 243° |
| 2026-04-11 11:28 | 44.99833 | -87.31572 | 34442 ft | 419 kts | 243° |
| 2026-04-11 11:28 | 44.96475 | -87.38328 | 34419 ft | 419 kts | 243° |
| 2026-04-11 11:29 | 44.91447 | -87.48415 | 34450 ft | 420 kts | 243° |
| 2026-04-11 11:29 | 44.88077 | -87.55155 | 34430 ft | 420 kts | 243° |
| 2026-04-11 11:30 | 44.84707 | -87.61880 | 34449 ft | 420 kts | 243° |
| 2026-04-11 11:30 | 44.81348 | -87.68565 | 34440 ft | 420 kts | 243° |
| 2026-04-11 11:31 | 44.77955 | -87.75307 | 34427 ft | 421 kts | 242° |
| 2026-04-11 11:31 | 44.74569 | -87.82015 | 34431 ft | 421 kts | 242° |
| 2026-04-11 11:32 | 44.71172 | -87.88731 | 34435 ft | 421 kts | 242° |
| 2026-04-11 11:32 | 44.67786 | -87.95408 | 34431 ft | 421 kts | 242° |
| 2026-04-11 11:33 | 44.64390 | -88.02091 | 34428 ft | 421 kts | 242° |
| 2026-04-11 11:33 | 44.60981 | -88.08778 | 34433 ft | 421 kts | 242° |
| 2026-04-11 11:34 | 44.56886 | -88.14808 | 34428 ft | 437 kts | 226° |
| 2026-04-11 11:34 | 44.54323 | -88.17171 | 34431 ft | 448 kts | 216° |
| 2026-04-11 11:34 | 44.51427 | -88.18924 | 34432 ft | 460 kts | 206° |
| 2026-04-11 11:35 | 44.48264 | -88.19938 | 34432 ft | 472 kts | 195° |
| 2026-04-11 11:35 | 44.44968 | -88.20363 | 34430 ft | 476 kts | 191° |
| 2026-04-11 11:35 | 44.38317 | -88.20762 | 34424 ft | 480 kts | 189° |
| 2026-04-11 11:36 | 44.31687 | -88.21055 | 34432 ft | 479 kts | 189° |
| 2026-04-11 11:36 | 44.25013 | -88.21418 | 34433 ft | 478 kts | 190° |
| 2026-04-11 11:37 | 44.18355 | -88.21829 | 34428 ft | 478 kts | 190° |
| 2026-04-11 11:37 | 44.11734 | -88.22251 | 34438 ft | 478 kts | 190° |
| 2026-04-11 11:38 | 44.05086 | -88.22671 | 34438 ft | 478 kts | 190° |
| 2026-04-11 11:38 | 43.98418 | -88.23089 | 34431 ft | 479 kts | 190° |
| 2026-04-11 11:39 | 43.91775 | -88.23504 | 34441 ft | 478 kts | 190° |
| 2026-04-11 11:39 | 43.85125 | -88.23918 | 34440 ft | 478 kts | 190° |
| 2026-04-11 11:40 | 43.78504 | -88.24330 | 34448 ft | 478 kts | 190° |
| 2026-04-11 11:40 | 43.71845 | -88.24743 | 34442 ft | 478 kts | 190° |
| 2026-04-11 11:41 | 43.65191 | -88.25155 | 34445 ft | 478 kts | 190° |
| 2026-04-11 11:41 | 43.58570 | -88.25563 | 34444 ft | 478 kts | 190° |
| 2026-04-11 11:42 | 43.51886 | -88.25976 | 34449 ft | 478 kts | 190° |
| 2026-04-11 11:42 | 43.45276 | -88.26382 | 34450 ft | 478 kts | 190° |
| 2026-04-11 11:43 | 43.38626 | -88.26789 | 34448 ft | 478 kts | 190° |
| 2026-04-11 11:43 | 43.31983 | -88.27196 | 34451 ft | 478 kts | 190° |
| 2026-04-11 11:44 | 43.25334 | -88.27603 | 34450 ft | 478 kts | 190° |
| 2026-04-11 11:44 | 43.18685 | -88.28008 | 34443 ft | 478 kts | 190° |
| 2026-04-11 11:45 | 43.12204 | -88.29298 | 34446 ft | 461 kts | 205° |
| 2026-04-11 11:45 | 43.09292 | -88.30883 | 34449 ft | 450 kts | 215° |
| 2026-04-11 11:45 | 43.06574 | -88.33042 | 34457 ft | 444 kts | 220° |
| 2026-04-11 11:46 | 43.01445 | -88.37651 | 34452 ft | 442 kts | 222° |
| 2026-04-11 11:46 | 42.96343 | -88.42385 | 34450 ft | 443 kts | 222° |
| 2026-04-11 11:47 | 42.91253 | -88.47068 | 34451 ft | 443 kts | 221° |
| 2026-04-11 11:47 | 42.86127 | -88.51733 | 34451 ft | 443 kts | 221° |
| 2026-04-11 11:48 | 42.80990 | -88.56385 | 34456 ft | 442 kts | 221° |
| 2026-04-11 11:48 | 42.75864 | -88.61018 | 34457 ft | 443 kts | 221° |
| 2026-04-11 11:49 | 42.70745 | -88.65636 | 34453 ft | 443 kts | 221° |
| 2026-04-11 11:49 | 42.65616 | -88.70255 | 34448 ft | 443 kts | 221° |
| 2026-04-11 11:50 | 42.60477 | -88.74874 | 34422 ft | 443 kts | 221° |
| 2026-04-11 11:50 | 42.55342 | -88.79481 | 34449 ft | 443 kts | 221° |
| 2026-04-11 11:51 | 42.50186 | -88.84096 | 34447 ft | 444 kts | 221° |
| 2026-04-11 11:51 | 42.45034 | -88.88699 | 34445 ft | 443 kts | 221° |
| 2026-04-11 11:52 | 42.39875 | -88.93298 | 34422 ft | 443 kts | 221° |
| 2026-04-11 11:52 | 42.34750 | -88.97859 | 34455 ft | 444 kts | 221° |
| 2026-04-11 11:53 | 42.29595 | -89.02438 | 34458 ft | 444 kts | 221° |
| 2026-04-11 11:53 | 42.24436 | -89.07010 | 34459 ft | 444 kts | 221° |
| 2026-04-11 11:54 | 42.19272 | -89.11577 | 34435 ft | 444 kts | 221° |
| 2026-04-11 11:54 | 42.14098 | -89.16146 | 34456 ft | 444 kts | 221° |
| 2026-04-11 11:55 | 42.08925 | -89.20703 | 34450 ft | 444 kts | 221° |
| 2026-04-11 11:55 | 42.03737 | -89.25264 | 34449 ft | 444 kts | 221° |
| 2026-04-11 11:56 | 41.98597 | -89.29774 | 34447 ft | 443 kts | 221° |
| 2026-04-11 11:56 | 41.93428 | -89.34301 | 34447 ft | 444 kts | 222° |
| 2026-04-11 11:57 | 41.88242 | -89.38836 | 34447 ft | 444 kts | 222° |
| 2026-04-11 11:57 | 41.83046 | -89.43369 | 34438 ft | 444 kts | 222° |
| 2026-04-11 11:58 | 41.77856 | -89.47887 | 34435 ft | 444 kts | 221° |
| 2026-04-11 11:58 | 41.72697 | -89.52371 | 34432 ft | 445 kts | 222° |
| 2026-04-11 11:59 | 41.67485 | -89.56892 | 34431 ft | 446 kts | 222° |
| 2026-04-11 11:59 | 41.62269 | -89.61406 | 34432 ft | 446 kts | 222° |
| 2026-04-11 12:00 | 41.57088 | -89.65881 | 34431 ft | 446 kts | 222° |
| 2026-04-11 12:00 | 41.51872 | -89.70379 | 34436 ft | 447 kts | 222° |
| 2026-04-11 12:01 | 41.46630 | -89.74891 | 34430 ft | 447 kts | 222° |
| 2026-04-11 12:01 | 41.41420 | -89.79365 | 34432 ft | 447 kts | 222° |
| 2026-04-11 12:02 | 41.36183 | -89.83853 | 34432 ft | 448 kts | 222° |
| 2026-04-11 12:02 | 41.30960 | -89.88322 | 34425 ft | 448 kts | 222° |
| 2026-04-11 12:03 | 41.25707 | -89.92809 | 34429 ft | 448 kts | 222° |
| 2026-04-11 12:03 | 41.20453 | -89.97286 | 34428 ft | 448 kts | 222° |
| 2026-04-11 12:04 | 41.15192 | -90.01759 | 34416 ft | 448 kts | 223° |
| 2026-04-11 12:04 | 41.10821 | -90.05470 | 34413 ft | 448 kts | 223° |
| 2026-04-11 12:05 | 41.04697 | -90.10661 | 34416 ft | 449 kts | 223° |
| 2026-04-11 12:05 | 40.99431 | -90.15114 | 34414 ft | 449 kts | 223° |
| 2026-04-11 12:06 | 40.94157 | -90.19564 | 34412 ft | 449 kts | 223° |
| 2026-04-11 12:06 | 40.88878 | -90.24012 | 34421 ft | 449 kts | 223° |
| 2026-04-11 12:07 | 40.83641 | -90.28418 | 34419 ft | 450 kts | 223° |
| 2026-04-11 12:07 | 40.78338 | -90.32867 | 34419 ft | 450 kts | 223° |
| 2026-04-11 12:08 | 40.73047 | -90.37298 | 34413 ft | 450 kts | 223° |
| 2026-04-11 12:08 | 40.67755 | -90.41720 | 34414 ft | 449 kts | 223° |
| 2026-04-11 12:09 | 40.62475 | -90.46123 | 34423 ft | 448 kts | 223° |
| 2026-04-11 12:09 | 40.57220 | -90.50502 | 34428 ft | 448 kts | 223° |
| 2026-04-11 12:10 | 40.52839 | -90.54146 | 34430 ft | 448 kts | 223° |
| 2026-04-11 12:10 | 40.46711 | -90.59233 | 34416 ft | 448 kts | 222° |
| 2026-04-11 12:11 | 40.41441 | -90.63597 | 34427 ft | 448 kts | 222° |
| 2026-04-11 12:11 | 40.36156 | -90.67965 | 34420 ft | 448 kts | 222° |
| 2026-04-11 12:12 | 40.31766 | -90.71588 | 34413 ft | 448 kts | 222° |
| 2026-04-11 12:12 | 40.26481 | -90.75941 | 34405 ft | 448 kts | 222° |
| 2026-04-11 12:13 | 40.20352 | -90.80977 | 34395 ft | 446 kts | 221° |
| 2026-04-11 12:13 | 40.15982 | -90.84561 | 34393 ft | 445 kts | 221° |
| 2026-04-11 12:14 | 40.10735 | -90.88862 | 34395 ft | 445 kts | 221° |
| 2026-04-11 12:14 | 40.05490 | -90.93153 | 34387 ft | 445 kts | 221° |
| 2026-04-11 12:15 | 40.00259 | -90.97424 | 34381 ft | 445 kts | 221° |
| 2026-04-11 12:15 | 39.94993 | -91.01715 | 34386 ft | 446 kts | 221° |
| 2026-04-11 12:16 | 39.89727 | -91.05997 | 34386 ft | 446 kts | 221° |
| 2026-04-11 12:16 | 39.84453 | -91.10276 | 34385 ft | 446 kts | 221° |
| 2026-04-11 12:17 | 39.79215 | -91.14520 | 33997 ft | 446 kts | 220° |
| 2026-04-11 12:17 | 39.73943 | -91.18784 | 33981 ft | 446 kts | 220° |
| 2026-04-11 12:18 | 39.68670 | -91.23039 | 33996 ft | 446 kts | 220° |
| 2026-04-11 12:19 | 39.60773 | -91.29400 | 34382 ft | 446 kts | 220° |
| 2026-04-11 12:19 | 39.55490 | -91.33646 | 34373 ft | 446 kts | 219° |
| 2026-04-11 12:20 | 39.50250 | -91.37851 | 34374 ft | 447 kts | 219° |
| 2026-04-11 12:20 | 39.44952 | -91.42094 | 34368 ft | 447 kts | 219° |
| 2026-04-11 12:21 | 39.39661 | -91.46321 | 34370 ft | 447 kts | 219° |
| 2026-04-11 12:21 | 39.34362 | -91.50548 | 34364 ft | 447 kts | 219° |
| 2026-04-11 12:22 | 39.29078 | -91.54758 | 34358 ft | 446 kts | 219° |
| 2026-04-11 12:22 | 39.23828 | -91.58930 | 34366 ft | 445 kts | 219° |
| 2026-04-11 12:23 | 39.18560 | -91.63108 | 34365 ft | 444 kts | 219° |
| 2026-04-11 12:23 | 39.13279 | -91.67293 | 34371 ft | 444 kts | 219° |
| 2026-04-11 12:24 | 39.08039 | -91.71437 | 34359 ft | 444 kts | 218° |
| 2026-04-11 12:24 | 39.02770 | -91.75595 | 34368 ft | 444 kts | 218° |
| 2026-04-11 12:25 | 38.97737 | -91.80091 | 34362 ft | 439 kts | 223° |
| 2026-04-11 12:25 | 38.92849 | -91.84817 | 34355 ft | 438 kts | 224° |
| 2026-04-11 12:26 | 38.88022 | -91.89522 | 34344 ft | 438 kts | 224° |
| 2026-04-11 12:26 | 38.83158 | -91.94245 | 34340 ft | 437 kts | 223° |
| 2026-04-11 12:27 | 38.78304 | -91.98939 | 34342 ft | 436 kts | 223° |
| 2026-04-11 12:27 | 38.73452 | -92.03622 | 34341 ft | 436 kts | 223° |
| 2026-04-11 12:28 | 38.68629 | -92.08270 | 34337 ft | 436 kts | 223° |
| 2026-04-11 12:28 | 38.63775 | -92.12939 | 34338 ft | 436 kts | 222° |
| 2026-04-11 12:29 | 38.58914 | -92.17608 | 34341 ft | 437 kts | 222° |
| 2026-04-11 12:29 | 38.54029 | -92.22290 | 34340 ft | 438 kts | 222° |
| 2026-04-11 12:30 | 38.49143 | -92.26965 | 34335 ft | 438 kts | 222° |
| 2026-04-11 12:30 | 38.44292 | -92.31598 | 34334 ft | 438 kts | 221° |
| 2026-04-11 12:31 | 38.39410 | -92.36253 | 34330 ft | 438 kts | 221° |
| 2026-04-11 12:31 | 38.34534 | -92.40895 | 34327 ft | 438 kts | 221° |
| 2026-04-11 12:32 | 38.29649 | -92.45539 | 34327 ft | 438 kts | 221° |
| 2026-04-11 12:32 | 38.24780 | -92.50158 | 34329 ft | 438 kts | 221° |
| 2026-04-11 12:33 | 38.19888 | -92.54791 | 34331 ft | 438 kts | 221° |
| 2026-04-11 12:33 | 38.15004 | -92.59407 | 34333 ft | 438 kts | 221° |
| 2026-04-11 12:34 | 38.10128 | -92.64010 | 34328 ft | 439 kts | 221° |
| 2026-04-11 12:34 | 38.05220 | -92.68635 | 34322 ft | 439 kts | 221° |
| 2026-04-11 12:35 | 38.00303 | -92.73258 | 34325 ft | 438 kts | 221° |
| 2026-04-11 12:35 | 37.95412 | -92.77850 | 34298 ft | 438 kts | 221° |
| 2026-04-11 12:36 | 37.90512 | -92.82445 | 34294 ft | 438 kts | 222° |
| 2026-04-11 12:36 | 37.85635 | -92.87012 | 34298 ft | 439 kts | 221° |
| 2026-04-11 12:37 | 37.80685 | -92.91635 | 34294 ft | 440 kts | 221° |
| 2026-04-11 12:37 | 37.75794 | -92.96195 | 34289 ft | 439 kts | 221° |
| 2026-04-11 12:38 | 37.70870 | -93.00779 | 34285 ft | 439 kts | 221° |
| 2026-04-11 12:38 | 37.65939 | -93.05362 | 34267 ft | 439 kts | 222° |
| 2026-04-11 12:39 | 37.60988 | -93.09960 | 34278 ft | 444 kts | 222° |
| 2026-04-11 12:39 | 37.55985 | -93.14596 | 34276 ft | 446 kts | 222° |
| 2026-04-11 12:40 | 37.51016 | -93.19188 | 34277 ft | 446 kts | 222° |
| 2026-04-11 12:40 | 37.46018 | -93.23800 | 34269 ft | 445 kts | 222° |
| 2026-04-11 12:41 | 37.41005 | -93.28419 | 34269 ft | 446 kts | 222° |
| 2026-04-11 12:41 | 37.35970 | -93.33000 | 34269 ft | 450 kts | 219° |
| 2026-04-11 12:42 | 37.30563 | -93.37063 | 34271 ft | 452 kts | 216° |
| 2026-04-11 12:42 | 37.25132 | -93.40968 | 34285 ft | 453 kts | 216° |
| 2026-04-11 12:43 | 37.16906 | -93.46850 | 34276 ft | 453 kts | 216° |
| 2026-04-11 12:43 | 37.11436 | -93.50769 | 34282 ft | 454 kts | 216° |
| 2026-04-11 12:44 | 37.05949 | -93.54697 | 34278 ft | 454 kts | 216° |
| 2026-04-11 12:44 | 37.00501 | -93.58590 | 34275 ft | 454 kts | 216° |
| 2026-04-11 12:45 | 36.95019 | -93.62501 | 34282 ft | 454 kts | 216° |
| 2026-04-11 12:45 | 36.89517 | -93.66420 | 34283 ft | 454 kts | 216° |
| 2026-04-11 12:46 | 36.84018 | -93.70330 | 34287 ft | 455 kts | 216° |
| 2026-04-11 12:46 | 36.78517 | -93.74235 | 34289 ft | 455 kts | 216° |
| 2026-04-11 12:47 | 36.73000 | -93.78143 | 34288 ft | 455 kts | 216° |
| 2026-04-11 12:47 | 36.67537 | -93.82008 | 34269 ft | 455 kts | 215° |
| 2026-04-11 12:48 | 36.62034 | -93.85895 | 34287 ft | 455 kts | 215° |
| 2026-04-11 12:48 | 36.56517 | -93.89785 | 34279 ft | 455 kts | 215° |
| 2026-04-11 12:49 | 36.50999 | -93.93669 | 34295 ft | 455 kts | 215° |
| 2026-04-11 12:49 | 36.45498 | -93.97535 | 34301 ft | 455 kts | 215° |
| 2026-04-11 12:50 | 36.39977 | -94.01409 | 34304 ft | 455 kts | 215° |
| 2026-04-11 12:50 | 36.34501 | -94.05245 | 34304 ft | 455 kts | 215° |
| 2026-04-11 12:51 | 36.28984 | -94.09103 | 34304 ft | 455 kts | 215° |
| 2026-04-11 12:51 | 36.23135 | -94.12216 | 34303 ft | 466 kts | 199° |
| 2026-04-11 12:52 | 36.16711 | -94.13640 | 34295 ft | 470 kts | 193° |
| 2026-04-11 12:52 | 36.10248 | -94.14745 | 34302 ft | 471 kts | 192° |
| 2026-04-11 12:53 | 36.03750 | -94.15839 | 34294 ft | 471 kts | 193° |
| 2026-04-11 12:53 | 35.97249 | -94.16964 | 34295 ft | 471 kts | 193° |
| 2026-04-11 12:54 | 35.90752 | -94.18104 | 34294 ft | 471 kts | 193° |
| 2026-04-11 12:54 | 35.84299 | -94.19237 | 34282 ft | 471 kts | 193° |
| 2026-04-11 12:55 | 35.77823 | -94.20369 | 34282 ft | 468 kts | 193° |
| 2026-04-11 12:55 | 35.71390 | -94.21491 | 34282 ft | 465 kts | 193° |
| 2026-04-11 12:56 | 35.64986 | -94.22609 | 34279 ft | 465 kts | 192° |
| 2026-04-11 12:56 | 35.58574 | -94.23727 | 34280 ft | 465 kts | 192° |
| 2026-04-11 12:57 | 35.52178 | -94.24839 | 34278 ft | 465 kts | 192° |
| 2026-04-11 12:57 | 35.50051 | -94.25209 | 34278 ft | 465 kts | 192° |